COOLWX HOME

EXTREME HOME

OTHER COOLWX PAGES
    Coolwx Hit Images
    Extreme Weather
    Global Forecasts
    Hourly Model Forecasts
    Mesoscale Analysis
    Obs. Weather Database
    Offshore Weather Data
    Precipitation Type
    Record Breakers
    U.S. Weather Statistics


EXTREME WX CATEGORIES
   CITIES & VALUES:
       Temperature
       Dewpoint
       Heat Index
       Wind
       Wind Chill
       Pressure
       Pressure Change
       Precip Type/Intensity
       Precip Amount
       Thunderstorm
       Blizzard
       Visibility
       Astronomical
       Other
       Multiple
       Unknown
   CITIES & FULL REPORTS:
       Temperature
       Dewpoint
       Heat Index
       Wind
       Wind Chill
       Pressure
       Pressure Change
       Precip Type/Intensity
       Precip Amount
       Thunderstorm
       Blizzard
       Visibility
       Astronomical
       Other
       Multiple
   USA & WORLD PLOTS:
       Temperature
       Dewpoint
       Wind
       Wind Chill & Heat Index
       Pressure
       Pressure Change
       Precip Type/Intensity
       Precip Amount
       Thunderstorm
       Blizzard
       Visibility
       Astronomical
       Other
       Unknown
   REPEAT OFFENDERS:
       Today
       Yesterday
       This month
       This year
       Since 2007
   RSS:
       Feed
   ARCHIVE:
       2024062123
       2024062121
       2024062118
       2024062115
       2024062112
       2024062109
       2024062106
       2024062103
       2024062100
       2024062021
       2024062018
       2024062015
       2024062012
       2024062009
       2024062006
       2024062003
       2024062000
       2024061921
       2024061918
       2024061915
       2024061912
       2024061909
       2024061906
       2024061903

CONTACT
       Bob Hart
       (rhart at fsu.edu)

Extreme & Weird Weather of the World - Archive for 2024051900
Currently using 35576 observations from 5118 unique global stations over the past 3 hours.
Last Updated: Sun May 19 00:46:29 UTC 2024



1 station reporting temperature -55°C or colder

0 stations reporting temperature -50°C to -54°C

0 stations reporting temperature -45°C to -49°C

0 stations reporting temperature -40°C to -44°C

0 stations reporting temperature 55°C or warmer

0 stations reporting temperature 50°C to 54°C

0 stations reporting temperature 45°C to 49°C

13 stations reporting temperature 40°C to 44°C


2 stations reporting dewpoint 30°C or greater

17 stations reporting dewpoint 28-29°C

230 stations reporting dewpoint 26-27°C


0 stations reporting wind gusts 70kt or stronger

0 stations reporting wind gusts 60-69kt

0 stations reporting wind gusts 50-59kt

22 stations reporting wind gusts 40-49kt


2 stations reporting (sustained) wind chill of -55°C or colder

0 stations reporting (sustained) wind chill of -50°C to -54°C

0 stations reporting (sustained) wind chill of -45°C to -49°C

0 stations reporting (sustained) wind chill of -40°C to -44°C


0 stations reporting heat index of 55°C or hotter

1 station reporting heat index of 50°C to 54°C

21 stations reporting heat index of 45°C to 49°C

103 stations reporting heat index of 40°C to 44°C


1 station reporting sea level pressure < 950mb

  • KQA8: UNKNOWN, [941.7mb, 27.80in]    
    KQA8 182355Z AUTO 27003KT 9999 CLR 23/08 A2986 RMK AO2 SLP417 WND DATA ESTMD T02290075 10327 20239 57003 $
    KQA8 182255Z AUTO 00000KT 9999 CLR 23/06 A2987 RMK AO2 SLP420 WND DATA ESTMD T02280057 $
    KQA8 182155Z AUTO 00000KT 9999 CLR 23/05 A2986 RMK AO2 SLP419 WND DATA ESTMD T02310053 $
    KQA8 182055Z AUTO 00000KT 9999 CLR 24/05 A2986 RMK AO2 LTG DSNT N SLP419 WND DATA ESTMD T02410053 58004 $
0 stations reporting sea level pressure 950mb - 959mb

0 stations reporting sea level pressure 960mb - 969mb

3 stations reporting sea level pressure 970mb - 979mb

  • NZCM: Williams Field, Antarctica [978.4mb, 28.89in]    
    NZCM 182355Z AUTO 06003KT 6000 -SN OVC038 M22/M26 A2890 RMK AO2 SNE2301B2328 SLP793 T12201260 11217 21245 51009 $
    NZCM 182328Z AUTO 07003KT 9999 -SN OVC050 M22/M26 A2889 RMK AO2 SNE2301B2328 SLP791 T12211260 $
    NZCM 182301Z AUTO 06005KT 9999 BKN055 OVC070 M23/M27 A2890 RMK AO2 SNE2301 SLP792 T12251267 $
    NZCM 182255Z AUTO 06004KT 9999 -SN BKN048 OVC070 M23/M27 A2890 RMK AO2 SNE2210B2235 SLP792 T12281269 $
    NZCM 182235Z AUTO 07006KT 9999 -SN OVC043 M23/M28 A2889 RMK AO2 SNE2210B2235 SLP791 T12331276 $
    NZCM 182210Z AUTO 05005KT 9999 OVC050 M23/M27 A2889 RMK AO2 SNE2210 SLP789 T12311274 $
    NZCM 182155Z AUTO 06004KT 9999 -SN OVC050 M22/M27 A2888 RMK AO2 SNB2057E2141B2155 SLP787 T12231266 $
    NZCM 182141Z AUTO 06004KT 9999 OVC048 M22/M26 A2888 RMK AO2 SNB2057E2141 SLP786 T12211264 $
    NZCM 182057Z AUTO 07007KT 9999 -SN OVC055 M23/M27 A2887 RMK AO2 SNB2057 SLP784 T12261267 $
    NZCM 182055Z AUTO 07007KT 9999 OVC055 M23/M27 A2887 RMK AO2 SNE2021B2023E2054 SLP784 T12281269 53013 $
    NZCM 182054Z AUTO 07007KT 9999 OVC055 M23/M27 A2887 RMK AO2 SNE2021B2023E2054 SLP784 T12281269 $
  • PACX: UNKNOWN, [976.4mb, 28.83in]    
    PACX 182356Z AUTO 06008KT 10SM CLR 16/M03 A2994 RMK AO2 SLP764 T01561028 10161 20111 58017
    PACX 182256Z AUTO 06010KT 010V080 10SM FEW075 16/M03 A2995 RMK AO2 SLP769 T01561033
    PACX 182156Z AUTO 06007KT 10SM OVC085 14/M03 A2997 RMK AO2 SLP776 T01441028
    PACX 182056Z AUTO 07007KT 10SM SCT085 14/M03 A2999 RMK AO2 SLP781 T01391028 56013
  • PFTO: UNKNOWN, [975.1mb, 28.79in]    
    PFTO 182356Z AUTO 17004KT 10SM BKN095 17/M03 A2984 RMK AO2 SLP751 T01721028 10189 20139 56013 $
    PFTO 182256Z AUTO 34009KT 10SM BKN090 BKN100 18/M02 A2984 RMK AO2 SLP752 T01781022 $
    PFTO 182156Z AUTO 12004KT 10SM BKN100 18/M03 A2986 RMK AO2 SLP756 T01831033 $
    PFTO 182056Z AUTO 00000KT 10SM CLR 18/M04 A2988 RMK AO2 SLP763 T01781039 56023 $
1 station reporting sea level pressure 980mb - 989mb

  • SCRM: Teniente Rodolfo, Antarctica [985mb, 29.08in]    
    SCRM 190000Z 27029KT 2000 DZ OVC006 00/M01 Q0986 NOSIG
    SCRM 182300Z 27028KT 3000 -FZDZ OVC006 M00/M01 Q0987 NOSIG
    SCRM 182200Z 26030KT 3000 DZ OVC007 00/M01 Q0985 NOSIG
    SCRM 182100Z 27029KT 3000 -DZ OVC009 00/M01 Q0986 NOSIG
1 station reporting sea level pressure > 1055mb

  • MMLO: Del Bajio / Leon, Mexico [1099.5mb, 32.46in]    
    MMLO 190001Z RTD 28009KT 10SM SKC 34/M04 A3002 RMK SLP985 57011 914 SC
    MMLO 182048Z 27013KT 10SM SKC 32/M01 A3007 RMK SLP995 57023 920
0 stations reporting sea level pressure 1050-1054mb

0 stations reporting sea level pressure 1045-1049mb

0 stations reporting sea level pressure 1040-1044mb

9 stations reporting sea level pressure 1035-1039mb

  • SLLP: La Paz / Alto, Bolivia [1039mb, 30.68in]    
    SLLP 190000Z 32006KT 9999 NSC 09/M02 Q1039
    SLLP 182300Z 30008KT 9999 NSC 10/M03 Q1038
    SLLP 182200Z 31009KT 9999 FEW017 11/M05 Q1038
    SLLP 182100Z 30009KT 9999 FEW020 14/M04 Q1038
  • SPJL: Juliaca, Peru [1036mb, 30.59in]    
    SPJL 190000Z 24007KT CAVOK 12/M09 Q1036 RMK PP000
    SPJL 182300Z 25004KT 9999 FEW020 15/M05 Q1035 RMK PP000
    SPJL 182200Z 30009KT 9999 FEW020 16/M05 Q1035 RMK TX21.8 PP000
    SPJL 182100Z 28008KT 220V310 9999 SCT020 17/M07 Q1035 RMK PP000
  • CYAB: Arctic Bay, Canada [1037.4mb, 30.63in]    
    CYAB 182200Z 25009G18KT 200V280 15SM OVC020 M03/M06 A3062 RMK SC8 CIG EST LAST STFD OBS/ NXT 201100Z SLP373
    CYAB 182100Z 23011G17KT 200V290 15SM OVC020 M03/M07 A3062 RMK SC8 CIG EST SLP374
  • CYBB: Pelly Bay Airport, Canada [1036.5mb, 30.60in]    
    CYBB 190000Z VRB02KT 15SM SCT015 OVC030 01/M01 A3059 RMK SF3SC5 LAST STFD OBS/NXT 191700Z SLP363
    CYBB 182300Z 11006KT 15SM BKN013 OVC030 01/M01 A3060 RMK SF6SC2 SLP365
    CYBB 182200Z 12006KT 15SM OVC015 01/M01 A3059 RMK SF8 SLP364
    CYBB 182100Z 13005KT 15SM OVC014 01/M02 A3059 RMK ST8 SLP364
  • CYHK: Gjoa Haven Airport, Canada [1035.8mb, 30.58in]    
    CYHK 190000Z AUTO 09005KT 080V140 9SM OVC018 00/M03 A3056 RMK SLP356
    CYHK 182300Z AUTO 12003KT 9SM OVC020 00/M03 A3057 RMK SLP358
    CYHK 182200Z AUTO 11004KT 9SM OVC020 00/M03 A3056 RMK SLP356
    CYHK 182100Z AUTO 12004KT 9SM OVC018 00/M02 A3056 RMK SLP355
  • CYIO: Pond Inlet, NT, Canada [1036.3mb, 30.60in]    
    CYIO 190000Z AUTO 18005KT 9SM CLR M06/M09 A3056 RMK SLP359
    CYIO 182300Z AUTO 17004KT 9SM CLR M05/M08 A3057 RMK SLP361
    CYIO 182200Z AUTO 22004KT 9SM CLR M05/M08 A3057 RMK SLP361
    CYIO 182100Z 20005KT 40SM FEW046 M05/M08 A3057 RMK SC2 LAST STFD OBS/NEXT 211500Z SLP363
  • CYRB: Resolute, NT, Canada [1036.4mb, 30.60in]    
    CYRB 190000Z 17002KT 30SM FEW008 BKN110 M05/M08 A3058 RMK SC1AC5 SLP364
    CYRB 182300Z 17003KT 30SM FEW008 BKN120 M05/M08 A3058 RMK SC2AC5 SLP364
    CYRB 182200Z 17003KT 30SM FEW008 BKN110 M05/M08 A3057 RMK ST1AC6 SLP363
    CYRB 182100Z 15003KT 30SM FEW008 OVC110 M05/M08 A3057 RMK ST2AC6 SLP363
  • CYUX: Hall Beach, NT, Canada [1037.7mb, 30.64in]    
    CYUX 190044Z AUTO 00000KT 3SM -SN OVC002 M04/M04 A3062 RMK SLP373
    CYUX 190041Z AUTO 00000KT 2SM -SN OVC002 M04/M04 A3063 RMK VIS VRB 1-3 SLP374
    CYUX 190035Z AUTO VRB02KT 1SM -SN OVC002 M04/M04 A3063 RMK SLP374
    CYUX 190015Z AUTO VRB02KT 3/4SM -SN VV002 M04/M04 A3063 RMK SLP375
    CYUX 190011Z AUTO 35002KT 1/2SM SN VV003 M04/M04 A3063 RMK SLP375
    CYUX 190000Z 00000KT 3/8SM -SN FZFG OVC003 M04/M04 A3063 RMK ST8 LAST STFD OBS NEXT 191200 SLP374
    CYUX 182300Z 00000KT 1/2SM -SN FZFG OVC003 M03/M04 A3063 RMK ST8 SLP375
    CYUX 182200Z VRB02KT 3/8SM -SN FZFG OVC003 M03/M04 A3063 RMK ST8 SLP376
    CYUX 182100Z VRB02KT 1/4SM -SN FZFG OVC003 M03/M04 A3063 RMK ST8 SLP377
  • CYYH: Spence Bay Airport, Canada [1036.4mb, 30.60in]    
    CYYH 190000Z 16002KT 15SM FEW008 FEW011 OVC019 M00/M02 A3059 RMK CF1CU1SC8 CF TR CU TR SLP364
    CYYH 182300Z 17005KT 15SM FEW008 FEW010 OVC021 M00/M02 A3059 RMK CF1CU1SC8 CF TR CU TR SLP363
    CYYH 182200Z 17003KT 15SM FEW008 FEW010 OVC021 M00/M02 A3059 RMK CF1CU1SC7 CF TR SLP363
    CYYH 182100Z 18004KT 15SM FEW008 FEW010 BKN020 00/M02 A3058 RMK CF1CU1SC7 CF TR CU TR SLP361


0 stations reporting 3-hourly pressure fall of 10mb or greater

3 stations reporting 3-hourly pressure fall of 5mb to 9.9mb

  • KAMG: Alma, Bacon County Airport, GA, United States [-5.5mb]
    KAMG 182053Z AUTO 19007G20KT 150V220 10SM SCT110 24/19 A2987 RMK AO2 PK WND 16026/2039 SLP111 60003 T02390194 58055
  • KTLH: Tallahassee, FL, United States [-5.2mb]
    KTLH 182053Z 11004KT 10SM TS CLR 23/21 A2986 RMK AO2 PK WND 14027/2020 SLP111 T02330206 58052 $
  • KVLD: Valdosta, Valdosta Regional Airport, GA, United States [-6.6mb]
    KVLD 182053Z AUTO 16011KT 10SM -RA FEW065 SCT090 OVC110 22/21 A2984 RMK AO2 PRESFR SLP113 P0001 60006 T02220206 58066 $
8 stations reporting 3-hourly pressure rise of 5mb to 9.9mb

  • CWCF: Berens River CS , Man., Canada [9.6mb]
    CWCF 182100Z AUTO 07005KT 10/10 RMK AO1 0PAST HR 6008 SLP963 P0008 T01020096 50096
  • CWJD: Grand Rapids, Man., Canada [9.1mb]
    CWJD 182300Z AUTO 03005KT 07/07 RMK AO1 5PAST HR 3011 SLP999 P0010 T00710069 50075
    CWJD 190000Z AUTO 02004KT 07/07 RMK AO1 6PAST HR 1016 SLP004 P0006 T00730071 50091
  • CWJH: Southend, Canada [5.6mb]
    CWJH 190000Z AUTO 06006KT 06/06 RMK AO1 7PAST HR 1012 SLP068 P0003 T00640056 50056
  • CWJO: Jonquiere, Canada [9.0mb]
    CWJO 182100Z AUTO 06003KT 15/14 RMK AO1 5PAST HR 6004 SLP170 P0018 T01470135 50090
    CWJO 182200Z AUTO 09005KT 15/13 RMK AO1 8003 SLP168 T01480133 50090
    CWJO 182300Z AUTO 11005KT 14/13 RMK AO1 6002 SLP168 T01430131 50090
    CWJO 190000Z AUTO 11004KT 14/13 RMK AO1 6003 SLP166 T01400127 50090
  • CWVT: Buffalo Narrows, Sask., Canada [5.0mb]
    CWVT 190000Z AUTO 03006KT 07/06 RMK AO1 8PAST HR 2015 SLP063 P0003 T00690062 50050
  • CXMM: Fort McMurray CS, Alta., Canada [7.8mb]
    CXMM 182300Z AUTO 33009KT 06/06 RMK AO1 6PAST HR 3004 SLP065 P0010 T00550063 50062
    CXMM 190000Z AUTO 36002KT 07/06 RMK AO1 6PAST HR 1008 SLP067 P0006 T00700060 50078
  • CXWN: Winnipeg The Forks, Man., Canada [5.2mb]
    CXWN 190000Z AUTO 23006KT 11/09 RMK AO1 7PAST HR 1027 SLP022 P0014 T01060086 50052
  • CZHY: Hay River, NT, Canada [5.1mb]
    CZHY 190000Z AUTO 01007KT 02/01 RMK AO1 5PAST HR 1005 SLP158 P0002 T00200014 50051
3 stations reporting 3-hourly pressure rise of 10mb or greater

  • CWCF: Berens River CS , Man., Canada [11.7mb]
    CWCF 182200Z AUTO 07004KT 10/09 RMK AO1 0PAST HR 6005 SLP962 P0004 T01010094 50105
    CWCF 182300Z AUTO 03004KT 10/09 RMK AO1 9PAST HR 6001 SLP962 P0004 T01000094 50115
    CWCF 190000Z AUTO 35004KT 10/10 RMK AO1 2PAST HR 3003 SLP966 P0001 T01010095 50117
  • CWWS: George Island, Canada [15.4mb]
    CWWS 182100Z AUTO 03011KT 06/06 RMK AO1 1PAST HR 6003 SLP970 P0000 T00590055 50117
    CWWS 182200Z AUTO 05013KT 07/07 RMK AO1 5PAST HR 3002 SLP973 P0002 T00700067 50122
    CWWS 182300Z AUTO 03014KT 06/06 RMK AO1 1PAST HR 3006 SLP976 P0008 T00580056 50143
    CWWS 190000Z AUTO 01014KT 06/06 RMK AO1 1PAST HR 3010 SLP980 P0004 T00570056 50154
  • CXEA: Ear Falls (aut), ON, Canada [17.2mb]
    CXEA 182100Z AUTO 21002KT 14/13 RMK AO1 2PAST HR 5000 PK WND 25033/2019 SLP990 P0067 T01390131 50172
    CXEA 182200Z AUTO 25009G17KT 16/12 RMK AO1 3014 PK WND 22017/2150 SLP998 T01590120 50172
    CXEA 182300Z AUTO 21004KT 16/12 RMK AO1 1017 PK WND 24018/2214 SLP998 T01630116 50172
    CXEA 190000Z AUTO 22006KT 15/08 RMK AO1 0004 PK WND 22017/2303 SLP994 T01530081 50172


0 stations reporting heavy snow

0 stations reporting any sleet

0 stations reporting any freezing rain

42 stations reporting heavy rain

  • CYAH: La Grande Iv, Que., Canada
    CYAH 182050Z AUTO VRB11G21KT 1 3/4SM +RA BR FEW003 BKN008 BKN014 OVC022 12/11 A2986 RMK PCPN 2.0MM PAST HR TS/LTNG
  • CYTL: Big Trout Lake, Canada
    CYTL 182052Z AUTO 10009G16KT 060V150 4SM +RA BR BKN038 OVC055 10/10 A2957 RMK PCPN 4.5MM PAST HR SLP025
  • KBCB: Virginia Tech Airport, VA, United States
    KBCB 182235Z AUTO 11003KT 3SM +RA BKN009 OVC014 18/18 A2996 RMK AO2 LTG DSNT S THRU N P0005 T01830183
    KBCB 182335Z AUTO 09006KT 1SM +RA OVC006 18/18 A2997 RMK AO2 LTG DSNT NW P0031 T01750175
  • KBFD: Bradford, Bradford Regional Airport, PA, United States
    KBFD 190002Z AUTO 00000KT 1 3/4SM +RA BR OVC034 19/17 A2995 RMK AO2 LTG DSNT SW P0008 T01940172
    KBFD 190011Z AUTO 00000KT 1/2SM +RA FG OVC032 19/18 A2994 RMK AO2 LTG DSNT SW P0028 T01940178
  • KBLF: Bluefield, Mercer County Airport, WV, United States
    KBLF 182252Z AUTO VRB03KT 1 1/2SM VCTS +RA BR BKN018 BKN030 16/14 A2994 RMK AO2 LTG DSNT NE AND SE AND SW RAE02B21 SLP117 P0009 T01610144
    KBLF 182350Z AUTO 18003KT 1 3/4SM VCTS +RA BR FEW017 BKN027 OVC034 15/14 A2996 RMK AO2 LTG DSNT NE AND E TSB12E48 P0052
    KBLF 182352Z AUTO VRB03KT 2SM VCTS +RA BR SCT017 BKN027 OVC034 15/14 A2996 RMK AO2 VIS 1 1/2V2 1/2 LTG DSNT NE AND E TSB12E48 SLP124 P0053 60069 T01500139 10222 20150 53012
    KBLF 190011Z AUTO 21003KT 1 1/2SM +RA BR FEW019 BKN038 OVC049 15/14 A2995 RMK AO2 LTG DSNT E AND SW TSB2356E11 P0013 T01500139
  • KCAR: Caribou, Caribou Municipal Airport, ME, United States
    KCAR 182344Z AUTO 27005KT 2 1/2SM +RA SCT038 BKN049 OVC070 17/13 A3008 RMK AO2 RAB2258 P0012 T01670128
  • KCVC: Covington, GA, United States
    KCVC 182055Z AUTO 20004KT 10SM +RA BKN013 OVC019 22/20 A2988 RMK AO2
    KCVC 182115Z AUTO 23003KT 10SM +RA OVC017 22/20 A2987 RMK AO2
    KCVC 182155Z AUTO 00000KT 7SM +RA SCT021 BKN033 OVC090 23/19 A2986 RMK AO2 LTG DSNT NW
    KCVC 182215Z AUTO 27003KT 10SM +RA SCT021 OVC033 23/19 A2987 RMK AO2 LTG DSNT N
    KCVC 182315Z AUTO 26003KT 7SM +RA SCT033 23/19 A2983 RMK AO2 LTG DSNT NW
    KCVC 182335Z AUTO 25004KT 10SM +RA SCT033 23/19 A2982 RMK AO2 LTG DSNT NW
  • KEET: Alabaster, Shelby County Airport, AL, United States
    KEET 182158Z AUTO 32008G18KT 1 3/4SM +RA SCT045 BKN050 OVC090 21/18 A2984 RMK AO2 LTG DSNT ALQDS RAB55 P0006 T02110183
  • KEWN: New Bern, Craven County Regional Airport, NC, United States
    KEWN 190027Z VRB05KT 1 1/2SM +RA BR FEW020 BKN030 OVC047 21/19 A2985 RMK AO2 LTG DSNT NW-E RAB2358E16B24 PRESRR P0018 T02060194
    KEWN 190036Z 14003KT 1SM +RA BR BKN026 BKN034 OVC048 21/19 A2984 RMK AO2 LTG DSNT NE AND NW RAB2358E16B24 P0030 T02060194
  • KFFC: Atlanta, Peachtree City-Falcon Field, GA, United States
    KFFC 182108Z AUTO VRB04KT 3/4SM +RA BR FEW016 SCT023 OVC030 22/20 A2988 RMK AO2 VIS 1/4V4 P0007 T02220200
  • KFXE: Fort Lauderdale, FL, United States
    KFXE 190023Z 06011G16KT 7SM +RA SCT019 BKN033 OVC100 28/24 A2995 RMK AO2 LTG DSNT NE AND E RAB21 TSE2357 P0009 T02830244
  • KGAD: Gadsden Municipal, AL, United States
    KGAD 182112Z AUTO 35012G17KT 4SM VCTS +RA BR FEW014 BKN028 OVC040 19/19 A2985 RMK AO2 LTG DSNT NE AND SW P0017 $
  • KGEV: Jefferson, Ashe County Airport, NC, United States
    KGEV 190025Z AUTO 00000KT 1 1/2SM +RA OVC007 15/15 A2997 RMK AO2 LTG DSNT SE P0016 T01530145
  • KGSO: Greensboro, Piedmont Triad Intl Arpt, NC, United States
    KGSO 182134Z 04011KT 1 3/4SM +RA BR FEW005 BKN035TCU OVC044 18/18 A2986 RMK AO2 RAE09B26 TSE12 CB DSNT NE TCU OHD P0005 T01830178
  • KGTR: Golden Tri, MS, United States
    KGTR 182133Z 36017KT 2SM VCTS +RA BR FEW008 BKN032 OVC044 21/19 A2984 RMK AO2 VIS 1V4 TSE02B33 PNO $
  • KHBI: Asheboro, Asheboro Municipal Airport, NC, United States
    KHBI 182325Z AUTO 02012G21KT 1 3/4SM +RA SCT011 OVC027 19/18 A2989 RMK AO2 P0030 T01870175
  • KHRJ: Erwin, Harnett County Airport, NC, United States
    KHRJ 182310Z AUTO 17009KT 5SM +RA BR BKN020 BKN026 OVC045 21/20 A2982 RMK AO2 P0007 T02090200
  • KI74: Urbana Grimes Field, OH, United States
    KI74 182135Z AUTO 33009KT 5SM +RA SCT036 BKN065 OVC100 20/16 A2991 RMK AO2 P0007
  • KINT: Winston Salem, Smith Reynolds Airport, NC, United States
    KINT 182048Z 05015G24KT 2 1/2SM VCTS +RA BR BKN012 OVC024 20/18 A2986 RMK AO2 LTG DSNT ALQDS RAB24 P0011 $
    KINT 182049Z 05014G24KT 2 1/2SM VCTS +RA BR BKN012 OVC024 20/18 A2985 RMK AO2 LTG DSNT ALQDS RAB24 SLP101 P0012 60012 T02000178 56012 $
  • KJFZ: Tazewell, VA, United States
    KJFZ 182255Z AUTO 03003KT 3SM +RA SCT017 BKN024 OVC035 18/18 A2994 RMK AO2 P0005 T01760176
  • KMKJ: Marion / Wytheville, VA, United States
    KMKJ 182115Z AUTO 04007KT 5SM +RA SCT012 BKN030 OVC037 17/16 A2994 RMK AO2 LTG DSNT E P0003 T01730164
    KMKJ 182315Z AUTO 03004KT 7SM +RA SCT024 SCT044 OVC085 16/16 A2996 RMK AO2 LTG DSNT ALQS P0004 T01620160
  • KMWK: Mount Airy, NC, United States
    KMWK 182125Z AUTO 04007G15KT 020V080 3SM +RA SCT007 BKN030 OVC055 19/18 A2991 RMK AO2 P0025 T01870183
  • KNBT: Piney Island, Bt-11 Bombing Range, NC, United States
    KNBT 182303Z AUTO VRB06KT 3/4SM +RA BR FEW018 BKN023 OVC055 23/22 A2983 RMK AO2 TSE02 P0023 T02330222 $
    KNBT 182314Z AUTO 23004KT 3/4SM +RA BKN027 OVC040 24/ A2982 RMK AO2 TSE02 P0043 T0239 $
  • KNFE: Fentress, Naval Auxiliary Landing Field, United States
    KNFE 182242Z AUTO 06007KT 1 1/4SM +RA OVC006 16/13 A2992 RMK AO2 CIG 004V008 P0011 T01610133
  • KNTU: Virginia Beach, Oceana, Naval Air Stn, VA, United States
    KNTU 182227Z 06009KT 1 1/2SM +RA BR OVC004 16/15 A2992 RMK AO2 P0010 T01560150
  • KOCW: Washington, Warren Field Airport, NC, United States
    KOCW 182325Z AUTO 03006KT 5SM +RA OVC005 21/19 A2984 RMK AO2 P0002 T02060194
    KOCW 182345Z AUTO 04010KT 3SM +RA OVC005 20/19 A2984 RMK AO2 P0004 T02000190
  • KPMP: Pompano Beach, FL, United States
    KPMP 190021Z 03012G16KT 4SM VCTS +RA BR FEW020 BKN029 OVC060 24/23 A2997 RMK AO2 LTG DSNT N-E TSE16 P0040 T02440228 $
  • KPUJ: Dallas, GA, United States
    KPUJ 190035Z AUTO 00000KT 7SM +RA SCT001 SCT050 OVC100 17/17 A2988 RMK AO2 LTG DSNT NE AND SE
  • KPVC: Provincetown, MA, United States
    KPVC 182334Z AUTO 05012KT 2SM +RA BR BKN004 BKN012 OVC027 11/11 A2999 RMK AO2 CIG 003V007 P0009
  • KRUQ: Salisbury, Rowan County Airport, NC, United States
    KRUQ 182325Z AUTO 02013G18KT 7SM +RA SCT010 BKN016 OVC027 19/17 A2986 RMK AO2 P0003 T01930173
    KRUQ 190005Z AUTO 10004KT 5SM +RA SCT036 BKN085 OVC095 18/17 A2987 RMK AO2 P0003 T01810174
  • KSCR: Siler City, NC, United States
    KSCR 182225Z AUTO 34003KT 3SM +RA SCT012 BKN028 OVC036 21/21 A2985 RMK AO2 P0014 T02110211
    KSCR 182305Z AUTO 03013G17KT 7SM +RA BKN008 BKN035 OVC048 19/19 A2985 RMK AO2 P0004 T01880188
  • KTTA: Sanford, NC, United States
    KTTA 182305Z AUTO 10005KT 4SM +RA BKN009 BKN025 OVC032 20/20 A2984 RMK AO2 T02010201
    KTTA 182345Z AUTO 02012G15KT 7SM +RA BKN009 OVC016 20/20 A2987 RMK AO2 T01950195
    KTTA 190005Z AUTO 02008G16KT 7SM +RA SCT009 BKN024 OVC060 19/19 A2986 RMK AO2 T01880188
    KTTA 190025Z AUTO 04009KT 3SM +RA SCT006 BKN046 OVC060 19/19 A2985 RMK AO2 T01860186
  • KVRB: Vero Beach, FL, United States
    KVRB 182253Z 11009KT 3SM +RA BKN060 BKN080 OVC095 26/23 A2992 RMK AO2 LTG DSNT NE-S RAB45 TSB00E15B22E39 SLP131 P0007 T02610228
  • LIME: Bergamo / Orio Al Serio, Italy
    LIME 182150Z AUTO 20006KT 3700 +RA BR BKN035/// 14/13 Q1014 RETS
  • MMPB: Puebla, Pue., Mexico
    MMPB 182229Z 06031KT 3SM +RA OVC015CB 20/09 A3022 RMK 8/9// +RAB28
    MMPB 182240Z 06014G32KT 3SM +RA OVC015CB 19/11 A3022 RMK 8/9// RWY WET
    MMPB 182340Z 28006KT 7SM OVC015CB 22/09 A3024 RMK 8/9// +RAE30 -RAB35 RWY WET
  • PGUM: Agana, Guam Intl Arpt, GU, United States
    PGUM 182341Z 09014G31KT 1 3/4SM +RA BR BKN020 BKN024 BKN036 27/25 A2984
    PGUM 182341Z 09014G31KT 1 3/4SM +RA BR BKN020 BKN024 BKN036 27/25 A2984 RMK AO2 PK WND 08031/2337 RAB38 P0000 T02720250 $
  • PHBK: Kekaha, HI, United States
    PHBK 182058Z AUTO 12004KT 4SM +RA FEW048 BKN090 OVC110 A3002 RMK AO2 P0004 $
  • PHHI: Wheeler AFB / Oahu, HI, United States
    PHHI 182255Z AUTO 32006KT 4SM +RA BR SCT009 24/23 A3006 RMK AO2 LTG DSNT SW SLP170 P0008 T02390225 $
    PHHI 182300Z AUTO 32007KT 2 1/2SM +RA BR BKN008 24/23 A3005 RMK AO2 VIS 2 1/2V5 LTG DSNT SW SLP167 $
    PHHI 182305Z AUTO 32007KT 1 3/4SM +RA BR BKN008 24/22 A3005 RMK AO2 VIS 1 3/4V3 SLP167 $
    PHHI 182310Z AUTO 33008KT 2 1/4SM +RA BR SCT007 SCT022 BKN031 24/22 A3005 RMK AO2 VIS 1 5/8V2 1/4 SLP167 $
  • SBAR: Aracaju Aeroporto, Brazil
    SBAR 182120Z 06004KT 7000 3000NE +SHRA SCT016 BKN018 OVC070 27/25 Q1014
  • SBFI: Foz Do Iguacu Aeroporto, Brazil
    SBFI 182139Z 24004KT 2000 +RA BR BKN004 OVC010 14/14 Q1019 RERA
  • SBJV: Lauro Carneiro De Loyola, Brazil
    SBJV 182203Z 24002KT 2000 +RA SCT002 BKN004 OVC015 16/16 Q1020
  • VVCI: Cat Bi, Viet Nam
    VVCI 182330Z 01013KT 340V060 2000 +RA VCTS FEW010 SCT014 FEW023CB 25/24 Q1003
7 stations reporting unknown precipitation type

  • KBAC: Valley City, ND, United States
    KBAC 182215Z AUTO 28021G29KT 9SM UP FEW065 18/04 A2979 RMK AO2
    KBAC 182235Z AUTO 27019G27KT 9SM UP FEW065 18/03 A2980 RMK AO2
    KBAC 182255Z AUTO 28018G28KT 9SM UP SCT070 18/03 A2980 RMK AO2
    KBAC 182315Z AUTO 29018G27KT 9SM UP SCT070 18/02 A2980 RMK AO2
    KBAC 182335Z AUTO 28021G28KT 9SM UP FEW070 18/02 A2980 RMK AO2
    KBAC 182355Z AUTO 28024G30KT 9SM UP CLR 18/02 A2981 RMK AO2
    KBAC 190015Z AUTO 28018G29KT 9SM UP CLR 18/02 A2982 RMK AO2
  • KCCU: Copper Mountain, Red Cliff Pass, CO, United States
    KCCU 182355Z AUTO 17022KT 10SM UP SCT037 SCT044 BKN060 06/00 A3039 RMK AO2
  • KFWB: Branson West, MO, United States
    KFWB 182155Z AUTO 00000KT 10SM UP CLR 29/16 A2990 RMK AO2
    KFWB 182215Z AUTO 00000KT 10SM UP BKN050 28/16 A2990 RMK AO2
    KFWB 182235Z AUTO 00000KT 10SM UP OVC050 28/16 A2990 RMK AO2
    KFWB 182255Z AUTO 00000KT 10SM UP SCT050 SCT060 28/16 A2990 RMK AO2
    KFWB 182315Z AUTO 00000KT 10SM UP CLR 28/15 A2990 RMK AO2
    KFWB 182335Z AUTO 00000KT 10SM UP SCT050 28/16 A2990 RMK AO2
    KFWB 182355Z AUTO 00000KT 10SM UP FEW050 28/16 A2990 RMK AO2
    KFWB 190015Z AUTO 00000KT 10SM UP CLR 27/17 A2990 RMK AO2
    KFWB 190035Z AUTO 00000KT 10SM UP CLR 26/19 A2991 RMK AO2
  • KRCR: Fulton County, IN, United States
    KRCR 182355Z AUTO 00000KT 1/2SM UP HZ OVC085 26/20 A2988 RMK AO2
    KRCR 190015Z AUTO 00000KT 1/4SM UP HZ BKN080 25/20 A2988 RMK AO2
    KRCR 190035Z AUTO 00000KT 3/4SM UP HZ BKN080 25/20 A2988 RMK AO2 VIS 1/4V5
  • KTMK: Tillamook, OR, United States
    KTMK 190015Z AUTO 32017KT 8SM UP FEW022 SCT032 OVC060 12/12 A3018 RMK AO2
  • PAKI: Kipnuk, AK, United States
    PAKI 182122Z AUTO 05017KT 10SM UP OVC005 A2967 RMK AO2 RAE14UPB17 P0000 FZRANO $
    PAKI 182156Z AUTO 05015KT 10SM UP BKN005 BKN011 OVC030 A2967 RMK AO2 RAE14UPB17 SLPNO P0000 FZRANO $
  • PAQT: Nuiqsut, Nuiqsut Airport, AK, United States
    PAQT 182053Z AUTO 09009KT 10SM UP OVC005 M01/M03 A3018 RMK AO2 SLP221 P0000 60000 T10111028 56005 TSNO $


0 stations reporting ice accretion in the past 1 hour

0 stations reporting ice accretion in the past 3 hours

0 stations reporting ice accretion in the past 6 hours

0 stations reporting hourly snow depth increase (SNINCR) of 3+"

0 stations reporting hourly snow depth increase (SNINCR) of 2"

0 stations reporting hourly snow depth increase (SNINCR) of 1"

0 stations reporting hourly (melted) precip total of 3" or greater

0 stations reporting hourly (melted) precip total of 2-2.99"

3 stations reporting hourly (melted) precip total of 1-1.99"

  • KETO: UNKNOWN, [1.17in]
    KETO 182155Z AUTO 08013KT 1/2SM BR BKN003 OVC026 22/21 A2987 RMK A01 P0117
  • KPUJ: Dallas, GA, United States [1.31in]
    KPUJ 182335Z AUTO 26003KT 3/4SM +TSRA BKN007 OVC014 17/17 A2991 RMK AO2 LTG DSNT ALQDS P0118
    KPUJ 182355Z AUTO 00000KT 5SM -RA SCT007 BKN075 OVC090 17/17 A2988 RMK AO2 LTG DSNT NE THRU S P0131
  • KRMG: Rome, R. B. Russell Airport, GA, United States [1.12in]
    KRMG 182139Z AUTO VRB06KT 1SM TSRA BKN015 BKN033 OVC042 21/18 A2983 RMK AO2 PK WND 14029/2111 LTG DSNT ALQDS RAB09 P0107 T02060178
    KRMG 182144Z AUTO 23005KT 3SM VCTS RA BR BKN015 OVC033 20/18 A2984 RMK AO2 PK WND 14029/2111 LTG DSNT ALQDS RAB09 TSE44 P0107 T02000178
    KRMG 182153Z AUTO 01008KT 4SM VCTS -RA BR FEW011 BKN026 OVC033 20/18 A2984 RMK AO2 PK WND 14029/2111 LTG DSNT ALQDS RAB09 TSE44 SLP095 P0112 T02000178
16 stations reporting hourly (melted) precip total of 0.5-0.99"

  • CXEA: Ear Falls (aut), ON, Canada [0.67in]
    CXEA 182100Z AUTO 21002KT 14/13 RMK AO1 2PAST HR 5000 PK WND 25033/2019 SLP990 P0067 T01390131 50172
  • KASN: Talladega, AL, United States [0.65in]
    KASN 182155Z AUTO 17005KT 1 1/2SM -TSRA BR SCT003 BKN009 BKN034 20/19 A2984 RMK AO2 PK WND 29034/32 LTG DSNT ALQDS PRESRR P0065 VIS 3/4V4
  • KAVL: Asheville, Asheville Regional Airport, NC, United States [0.50in]
    KAVL 182242Z 06003KT 1 3/4SM -TSRA BR SCT034 BKN075 OVC100 17/16 A2988 RMK AO2 PK WND 31045/2209 LTG DSNT E TSE22B23 P0050 T01720156
    KAVL 182245Z 00000KT 4SM -TSRA BR SCT040 SCT075 OVC100 17/16 A2989 RMK AO2 PK WND 31045/2209 LTG DSNT NE AND E TSE22B23 P0050 T01720156
    KAVL 182254Z VRB04KT 10SM TS FEW037 BKN100 17/16 A2989 RMK AO2 PK WND 31045/2209 LTG DSNT NE AND NW RAE53 TSE22B23 SLP104 P0050 T01720156
  • KBLF: Bluefield, Mercer County Airport, WV, United States [0.53in]
    KBLF 182346Z AUTO VRB03KT 1 3/4SM +TSRA BR SCT017 OVC030 15/14 A2996 RMK AO2 LTG DSNT NE AND E TSB12 P0050
    KBLF 182350Z AUTO 18003KT 1 3/4SM VCTS +RA BR FEW017 BKN027 OVC034 15/14 A2996 RMK AO2 LTG DSNT NE AND E TSB12E48 P0052
    KBLF 182352Z AUTO VRB03KT 2SM VCTS +RA BR SCT017 BKN027 OVC034 15/14 A2996 RMK AO2 VIS 1 1/2V2 1/2 LTG DSNT NE AND E TSB12E48 SLP124 P0053 60069 T01500139 10222 20150 53012
  • KBUY: Burlington, Burlington Alamance Regional Airport, NC, United States [0.59in]
    KBUY 182240Z AUTO 01006G15KT 2SM -TSRA BR BKN027 BKN049 OVC080 17/16 A2987 RMK AO2 LTG DSNT ALQDS RAB2156 TSE15B17 P0059 T01720161
    KBUY 182243Z AUTO 03005KT 4SM VCTS -RA BR BKN025 BKN049 OVC075 18/16 A2987 RMK AO2 LTG DSNT ALQDS RAB2156 TSE15B17E43 P0059 T01780161
    KBUY 182252Z AUTO 02004KT 10SM SCT023 SCT085 18/17 A2986 RMK AO2 LTG DSNT ALQDS RAB2156E51 TSE15B17E43 P0059
    KBUY 182253Z AUTO 02004KT 10SM SCT023 SCT085 18/17 A2986 RMK AO2 LTG DSNT ALQDS RAB2156E51 TSE15B17E43 SLP108 P0059 T01780167
  • KCNI: Canton, GA, United States [0.95in]
    KCNI 182355Z AUTO 19006KT 1/2SM +TSRA FG OVC013 19/18 A2988 RMK AO2 LTG DSNT ALQDS P0095 T01910183 10268 20188 402680186 60096
  • KCYD: Miss Canyan 807, LA, United States [0.68in]
    KCYD 182135Z AUTO 10009KT 1SM +TSRA BR BKN008 BKN041 OVC055 23/21 A2993 RMK A02 LTG DSNT E W AND NW P0060 T02290207
    KCYD 182155Z AUTO 11013KT 3 1/2SM -VCTSRA BR SCT042 SCT050 OVC100 23/21 A2992 RMK A02 LTG DSNT E AND W P0068 T02310211
  • KDSF: Mississippi Canyon, LA, United States [0.54in]
    KDSF 182200Z AUTO 05016KT 1/4SM FG BKN004 BKN015 OVC027 24/24 A2991 RMK A01 P0054
  • KGSO: Greensboro, Piedmont Triad Intl Arpt, NC, United States [0.73in]
    KGSO 182054Z 02009G22KT 1SM +TSRA BR BKN013 BKN019 OVC039CB 19/19 A2984 RMK AO2 PK WND 04026/2042 WSHFT 1947 RAB31 TSB27 SLP097 OCNL LTGICCG OHD TS OHD MOV E P0073 60073 T01890189 58009 RVRNO
  • KINT: Winston Salem, Smith Reynolds Airport, NC, United States [0.63in]
    KINT 182217Z 05009G17KT 1/2SM +TSRA FG BKN007 BKN017 OVC039 18/17 A2990 RMK AO2 WSHFT 2141 LTG DSNT ALQDS RAB2159 TSE2159B05 P0051 T01830167 $
    KINT 182220Z 03010G18KT 1/2SM +TSRA FG FEW007 BKN016 OVC039 18/17 A2989 RMK AO2 WSHFT 2141 LTG DSNT ALQDS RAB2159 TSE2159B05 P0057 T01780167 $
    KINT 182228Z 06012KT 1 1/4SM VCTS RA BR FEW007 BKN028 OVC075 18/17 A2987 RMK AO2 WSHFT 2141 LTG DSNT SE-W RAB2159 TSE2159B05E28 P0062 T01830167 $
    KINT 182233Z 08010G18KT 3SM -TSRA BR FEW007 BKN028 OVC080 18/17 A2988 RMK AO2 WSHFT 2141 LTG DSNT SE-W RAB2159 TSE2159B05E28B31 P0062 T01830167 $
    KINT 182247Z 07008KT 10SM VCTS BKN006 BKN030 OVC050 18/17 A2988 RMK AO2 WSHFT 2141 LTG DSNT SE-W RAB2159E45 TSE2159B05E28B31E46 P0063 T01830167 $
    KINT 182254Z 07008KT 10SM BKN006 BKN032 OVC100 18/17 A2988 RMK AO2 WSHFT 2141 LTG DSNT SE-W RAB2159E45 TSE2159B05E28B31E46 SLP108 P0063 T01830167 $
  • KISW: Wisconsin Rapids, WI, United States [0.52in]
    KISW 182354Z AUTO 21011G25KT 3/4SM +TSRA BR BKN040 OVC070 19/18 A2977 RMK AO2 PK WND 29027/2338 WSHFT 2336 LTG DSNT E AND NW RAB19 TSB29 SLP078 P0052 60052 T01940178 10300 20194 53012
  • KMKJ: Marion / Wytheville, VA, United States [0.78in]
    KMKJ 182135Z AUTO 07007KT 3/4SM +VCTSRA BKN012 BKN021 OVC030 16/16 A2995 RMK AO2 LTG DSNT E SE AND NW P0058 T01630160
    KMKJ 182135Z AUTO 07007KT 3/4SM /VCTSRA BKN012 BKN021 OVC030 16/16 A2995 RMK AO2 LTG DSNT E SE AND NW P0058 T01630160
    KMKJ 182155Z AUTO 04005KT 2SM RA SCT012 SCT018 OVC023 16/16 A2995 RMK AO2 LTG DSNT E AND SE P0078 T01620158
  • KNBT: Piney Island, Bt-11 Bombing Range, NC, United States [0.52in]
    KNBT 182251Z AUTO 27006G19KT 1/2SM +TSRA FG BKN021 OVC042 23/22 A2983 RMK AO2 RAB25 TSB28B30 SLP106 P0052 T02330222 $
  • KPMP: Pompano Beach, FL, United States [0.60in]
    KPMP 190038Z 03012G16KT 5SM +TSRA BR SCT015 BKN026 OVC050 24/23 A2998 RMK AO2 PK WND 06027/0033 LTG DSNT NE AND E TSE16B28 P0060 T02440228 $
  • KRMG: Rome, R. B. Russell Airport, GA, United States [0.61in]
    KRMG 182224Z AUTO 35004KT 1SM TSRA BR BKN025 BKN065 OVC080 19/18 A2984 RMK AO2 LTG DSNT ALQDS TSB03 P0056 T01940178
    KRMG 182229Z AUTO 35006KT 3SM -TSRA BR BKN023 BKN065 OVC090 19/18 A2984 RMK AO2 LTG DSNT ALQDS TSB03 P0058 T01940178
    KRMG 182237Z AUTO 02009KT 5SM -TSRA BR SCT026 BKN090 OVC110 20/18 A2983 RMK AO2 LTG DSNT SE AND S TSB03 P0060 T02000183
    KRMG 182253Z AUTO 34003KT 10SM VCTS -RA SCT075 OVC100 20/18 A2984 RMK AO2 LTG DSNT NE-S TSB03E52 SLP097 P0061 T02000183
  • KSCD: Sylacauga, AL, United States [0.81in]
    KSCD 182235Z AUTO 36004KT 1/2SM +TSRA BKN011 OVC033 20/19 A2985 RMK AO2 LTG DSNT ALQS P0073 T01970189
    KSCD 182255Z AUTO 13003KT 10SM SCT010 BKN070 OVC100 20/19 A2985 RMK AO2 LTG DSNT NE THRU SW P0081 T01970189
0 stations reporting 3 or 6 hourly (melted) precip total of 5" or greater

0 stations reporting 3 or 6 hourly (melted) precip total of 4-4.99"

0 stations reporting 3 or 6 hourly (melted) precip total of 3-3.99"

0 stations reporting 3 or 6 hourly (melted) precip total of 2-2.99"


0 stations reporting tornado, funnel cloud or waterspout

1 station reporting mammatus cloud

  • KATL: Atlanta, GA, United States
    KATL 182352Z COR 24007KT 10SM SCT025 SCT080CB BKN150 BKN200 23/19 A2985 RMK AO2 SLP102 CBMAM OHD OCNL LTGIC DSNT SW-NW CB DSNT SW-NW MOV E 60001 T02280194 10250 20228 55007
2 stations reporting hail

  • CYCQ: Chetwynd Airport, Canada [unreported size]
    CYCQ 182104Z 23011G23KT 15SM -SHRASG SCT055CB 12/02 A2980 RMK CB7 HAIL 0.8 MM SLP114 DENSITY ALT 2200FT
    CYCQ 182219Z 35010G24KT 320V030 35SM -SHGR OVC055CB 09/03 A2985 RMK CB8 HAIL DIAM 0.6MM SLP131
  • CYXJ: Fort St John, B. C., Canada [2mm]
    CYXJ 190023Z 29010KT 240V310 60SM -SHRAGS BKN055CB BKN130 BKN230 11/04 A2982 RMK CB6AC1CI1 CI TR HAIL DIAM 02 MM SLP124 DENSITY ALT 2500FT
0 stations reporting thundersnow

0 stations reporting thundersleet

0 stations reporting thunder with freezing rain

95 stations reporting thunder with rain

  • CYAH: La Grande Iv, Que., Canada
    CYAH 182106Z AUTO 05009G17KT 010V080 2 1/4SM TSRA BR SCT005 SCT014 BKN026 OVC055 12/12 A2985 RMK LTNG DIST ALQDS SLP120
    CYAH 182107Z AUTO 05010G16KT 2 1/2SM -TSRA BR SCT008 BKN026 BKN036 OVC055 12/11 A2985 RMK LTNG DIST ALQDS SLP120
    CYAH 182108Z AUTO 04011G16KT 3SM -TSRA BR FEW004 SCT011 BKN026 OVC055 12/11 A2985 RMK LTNG DIST ALQDS SLP120
    CYAH 182111Z AUTO 03007G16KT 010V080 6SM -TSRA BR FEW003 SCT011 BKN026 OVC050 12/12 A2985 RMK LTNG DIST ALQDS SLP118
    CYAH 182112Z AUTO 03005G16KT 350V080 6SM -TSRA BR SCT007 SCT024 OVC050 12/12 A2985 RMK LTNG DIST ALQDS SLP118
    CYAH 182334Z AUTO 17008KT 090V190 9SM -TSRA BKN009 OVC091 13/12 A2987 RMK LTNG DIST E SE PRESRR SLP127
  • CYCQ: Chetwynd Airport, Canada
    CYCQ 182224Z 01012G24KT 280V050 35SM -TSRA OVC055CB 09/03 A2985 RMK CB8 SLP132
    CYCQ 182244Z 36006G18KT 35SM -TSRA OVC055CB 08/04 A2987 RMK CB8 LTGCC SLP141
    CYCQ 182300Z VRB03KT 35SM -TSRA OVC055CB 07/04 A2988 RMK CB8 LTGCC CB ALQDS MOV E SLP144
  • CYDQ: Dawson Creek Airport, Canada
    CYDQ 182149Z AUTO 26015KT 9SM TSRA FEW033 BKN066 OVC240 10/03 A2980 RMK PCPN 0.5MM PAST HR SLP109
    CYDQ 182200Z AUTO 25013KT 9SM -TSRA FEW030 BKN066 10/03 A2980 RMK PCPN 0.5MM PAST HR SLP113
    CYDQ 182251Z AUTO 28011KT 9SM -TSRA FEW022 SCT071 BKN092 BKN240 10/04 A2981 RMK SLP113
    CYDQ 182300Z AUTO 32011G17KT 270V340 9SM TSRA SCT034 BKN047 BKN071 BKN240 09/04 A2983 RMK SLP126
    CYDQ 182329Z AUTO 12005KT 020V140 9SM TSRA SCT034 09/04 A2983 RMK PCPN 0.8MM PAST HR SLP119
  • CYPL: Pickle Lake Man, Canada
    CYPL 182329Z AUTO 17009G20KT 120V220 9SM -TSRA OVC081 16/14 A2950 RMK LTNG DIST ALQDS PRESRR PCPN 1.0MM PAST HR SLP995 DENSITY ALT 2200FT
    CYPL 182342Z AUTO 29007G20KT 210V300 7SM -TSRA FEW020 SCT033 BKN055 OVC088 13/11 A2951 RMK LTNG DIST ALQDS PRESRR PCPN 1.8MM PAST HR SLP004 DENSITY ALT 1800FT
  • CYXJ: Fort St John, B. C., Canada
    CYXJ 190033Z 36008G15KT 290V010 15SM -TSRA BKN058CB BKN130 BKN230 09/03 A2983 RMK CB6AC1CI1 CI TR SLP129
  • CYXL: Sioux Lookout, Ont., Canada
    CYXL 182100Z 23009KT 15SM -TSRA FEW010 BKN030CB BKN250 14/11 A2953 RMK SF1CB6CI1 SF TR WIND EST VIA CYXU SLP008 DENSITY ALT 1900FT
  • DAAE: Bejaia, Algeria
    DAAE 182100Z 13007KT 8000 -TSRA FEW013 FEW023CB SCT040 BKN090 17/14 Q1010
  • DAAS: Setif, Algeria
    DAAS 182100Z 33010KT 7000 TSRA FEW023CB BKN026 15/13 Q1016 RESHGR
  • DAAV: Jijel Achouat, Algeria
    DAAV 182200Z 01003KT 9999 -TSRA FEW016 FEW026CB BKN033 20/17 Q1012
  • DABC: Constantine, Algeria
    DABC 182230Z 03011KT 340V050 9999 TSRA SCT030CB BKN083 13/12 Q1015
  • DTNH: Enfidha Hammamet Intl, Tunisia
    DTNH 182100Z 04010KT 290V080 9999 -TSRA SCT026CB SCT033 22/20 Q1010
    DTNH 182130Z 35011KT 9999 -TSRA SCT026CB 21/20 Q1011
    DTNH 182200Z 02010KT 9999 -TSRA SCT026CB 21/20 Q1010
  • FKYS: Yaounde, Cameroon
    FKYS 182100Z VRB02KT 7000 -TSRA SCT010 FEW020CB 21/20 Q1017 NOSIG
    FKYS 182230Z VRB02KT 7000 -TSRA SCT010 FEW020CB 21/20 Q1017 NOSIG
    FKYS 182330Z VRB02KT 7000 -TSRA SCT010 FEW020CB 21/20 Q1017
    FKYS 190000Z 16003KT 7000 -TSRA SCT010 FEW020CB 21/20 Q1016
  • K24A: Sylva, NC, United States
    K24A 182345Z AUTO 00000KT 1 3/4SM TSRA BR SCT001 BKN022 OVC030 16/16 A2993 RMK AO2 VIS 3/4V3 LTG DSNT E SE AND NW P0006 T01640156 10243 20163 402430153 60006
    K24A 190005Z AUTO 00000KT 7SM -TSRA BR BKN022 OVC030 16/16 A2993 RMK AO2 LTG DSNT ALQDS T01650156
    K24A 190025Z AUTO 00000KT 10SM -TSRA BKN024 OVC030 17/15 A2994 RMK AO2 LTG DSNT NW THRU SE T01710148
  • KAEJ: Central Colorado Regional Airport, CO, United States
    KAEJ 182055Z AUTO 7SM -TSRA SCT022 BKN080 OVC095 13/02 A3021 RMK AO2 LTG DSNT S THRU NW T01270020
  • KALX: Alexander City, Thomas C Russell Field Airport, AL, United States
    KALX 190015Z AUTO 02003KT 2 1/2SM TSRA SCT002 BKN006 OVC042 20/20 A2986 RMK AO2 LTG DSNT ALQDS P0014 T01970196
  • KANB: Anniston, Anniston Metropolitan Airport, AL, United States
    KANB 182214Z AUTO 21004G14KT 3SM TSRA BR SCT032 BKN048 OVC110 19/17 A2986 RMK AO2 PK WND 26047/2157 WSHFT 2148 LTG DSNT N AND NE AND SW RAB2155 P0026 T01940172
  • KASN: Talladega, AL, United States
    KASN 182155Z AUTO 17005KT 1 1/2SM -TSRA BR SCT003 BKN009 BKN034 20/19 A2984 RMK AO2 PK WND 29034/32 LTG DSNT ALQDS PRESRR P0065 VIS 3/4V4
  • KAVL: Asheville, Asheville Regional Airport, NC, United States
    KAVL 182137Z 02018G27KT 4SM TSRA FEW020 BKN029 BKN033 22/17 A2988 RMK AO2 PK WND 04027/2137 LTG DSNT W-NE RAB33 TSB27 P0001 T02170172
    KAVL 182142Z 03008G27KT 360V090 1 3/4SM TSRA FEW020 BKN027 OVC036 19/15 A2989 RMK AO2 PK WND 04027/2137 LTG DSNT NE RAB33 TSB27 P0003 T01940150
    KAVL 182154Z VRB06G19KT 2SM -TSRA FEW022 BKN028 OVC044 17/14 A2989 RMK AO2 PK WND 04027/2137 LTG DSNT W RAB33 TSB27 SLP104 P0018 T01720139
    KAVL 182156Z 01006G17KT 4SM -TSRA FEW020 SCT026 OVC041 18/14 A2989 RMK AO2 LTG DSNT W P0000 T01780139
    KAVL 182210Z 28028G45KT 1 3/4SM -TSRA SQ FEW027 BKN039 OVC048 18/14 A2991 RMK AO2 PK WND 31045/2209 LTG DSNT NE AND NW P0000 T01830144
    KAVL 182224Z 14006KT 2 1/2SM -TSRA BR FEW025 BKN040 OVC100 17/15 A2990 RMK AO2 PK WND 31045/2209 LTG DSNT E TSE22B23 P0026 T01720150
    KAVL 182242Z 06003KT 1 3/4SM -TSRA BR SCT034 BKN075 OVC100 17/16 A2988 RMK AO2 PK WND 31045/2209 LTG DSNT E TSE22B23 P0050 T01720156
    KAVL 182245Z 00000KT 4SM -TSRA BR SCT040 SCT075 OVC100 17/16 A2989 RMK AO2 PK WND 31045/2209 LTG DSNT NE AND E TSE22B23 P0050 T01720156
  • KBCT: Boca Raton, Boca Raton Airport, FL, United States
    KBCT 182353Z 10012G18KT 2SM -TSRA SCT030 25/24 A2997 RMK LTG DSNT ALQDS.
    KBCT 182353Z COR 10012G18KT 2SM -TSRA SCT030 25/24 A2997 RMK LTG DSNT ALQDS.
  • KBHM: Birmingham, Birmingham Intl Arpt, AL, United States
    KBHM 182053Z 32010KT 2SM TSRA BR SCT031 OVC049CB 20/18 A2989 RMK AO2 PK WND 29039/2023 RAB32 TSB24 SLP115 OCNL LTGCC W-N TS W-N MOV E P0014 60014 T02000178 53005
    KBHM 182102Z 36005KT 4SM TSRA BR SCT039 BKN055CB OVC090 20/18 A2988 RMK AO2 OCNL LTGCC NE-S TS NE-S MOV E P0004 T02000178
  • KBJC: Broomfield / Jeffco, CO, United States
    KBJC 190001Z 31017G25KT 10SM TSRA BKN110 22/05 A3000 RMK TSB01 TS OHD MOV OCNL LTGCG S
  • KBLF: Bluefield, Mercer County Airport, WV, United States
    KBLF 190000Z AUTO 20004KT 2 1/2SM TSRA BR SCT019 BKN027 OVC060 15/14 A2995 RMK AO2 LTG DSNT NE AND E TSB2356 P0003 T01500139
    KBLF 190039Z AUTO 02006KT 6SM -TSRA BR FEW009 BKN034 OVC043 15/14 A2997 RMK AO2 LTG DSNT NE AND E TSB2356E11B20 P0023 T01500144
  • KBUY: Burlington, Burlington Alamance Regional Airport, NC, United States
    KBUY 182240Z AUTO 01006G15KT 2SM -TSRA BR BKN027 BKN049 OVC080 17/16 A2987 RMK AO2 LTG DSNT ALQDS RAB2156 TSE15B17 P0059 T01720161
  • KCMX: Hancock, Houghton County Memorial Airport, MI, United States
    KCMX 182248Z AUTO 29007KT 6SM -TSRA SCT060 BKN075 OVC100 19/16 A2964 RMK AO2 PK WND 29037/2207 LTG DSNT NE AND S AND SW RAB07 TSB09E24B42 P0017 $
    KCMX 182253Z AUTO 31007KT 10SM -TSRA FEW045 BKN090 OVC100 19/16 A2964 RMK AO2 PK WND 29037/2207 LTG DSNT ALQDS RAB07 TSB09E24B42 SLP036 P0017 T01940156 $
    KCMX 190022Z AUTO 00000KT 8SM -TSRA FEW048 BKN090 OVC110 19/16 A2966 RMK AO2 LTG DSNT N AND NE AND S TSB22 P0000 T01940161
  • KCNI: Canton, GA, United States
    KCNI 190015Z AUTO 29004KT 3 1/2SM TSRA BR SCT014 BKN080 OVC110 18/18 A2987 RMK AO2 LTG DSNT ALQDS P0005 T01830178
  • KCOF: Cocoa / Patrick AFB, FL, United States
    KCOF 182150Z AUTO 30006KT 5SM -TSRA BR SCT003 BKN019 OVC090 25/23 A2994 RMK AO2 DZB06E10RAB10 TSB28 CIG 017V022 CIG 011 RWY03 SLP143 $
  • KCOS: Colorado Springs, CO, United States
    KCOS 182342Z 31026G37KT 8SM TSRA SCT040CB BKN070 OVC120 16/08 A3013 RMK AO2 PK WND 29037/2338 WSHFT 2326 RAB37 TSB35 PRESRR FRQ LTGICCG OHD TS OHD MOV NE P0000 T01560078 $
    KCOS 182354Z 32014G27KT 10SM -TSRA FEW020 BKN060CB BKN090 13/09 A3014 RMK AO2 PK WND 29037/2338 WSHFT 2326 RAB37 TSB35 PRESRR SLP159 53006 OCNL LTGICCG NE TS NE MOV NE P0020 60020 T01330094 10250 20128 $
  • KCWN: Cheyenne Moutain, CO, United States
    KCWN 182336Z AUTO 25014G21KT 6SM -TSRA BKN070 OVC090 18/04 A3010 RMK AO2 RAB36 TSB15 SLP015 $
    KCWN 182343Z AUTO 30018G27KT 6SM TSRA BKN070 OVC085 15/06 A3012 RMK AO2 WSHFT 36 RAB36 TSB15 PRESRR SLP033 $
  • KCYD: Miss Canyan 807, LA, United States
    KCYD 182315Z AUTO 12026KT 3SM -TSRA BR SCT006 SCT010 BKN014 23/21 A2992 RMK A02 LTG DSNT E AND W T02290213
  • KCZL: Calhoun, GA, United States
    KCZL 182315Z AUTO 32004KT 3SM -TSRA BR FEW004 FEW011 FEW080 19/19 A2983 RMK AO2 LTG DSNT E-SW PRESFR
  • KD25: Manitowish Waters, WI, United States
    KD25 182215Z AUTO 22011G18KT 10SM -TSRA SCT060 BKN070 BKN100 20/16 A2969 RMK AO2 LTG DSNT ALQS P0002 T01990157
  • KDAB: Daytona Beach, FL, United States
    KDAB 182053Z 28007KT 8SM -TSRA FEW020CB SCT075 BKN085 OVC130 25/23 A2998 RMK AO2 LTG DSNT W-NE RAE08B38 PRESRR SLP152 FRQ LTGICCG OHD-NW-N TS OHD-NW-N MOV E P0001 60025 T02500228 50005
  • KFCS: Fort Carson, CO, United States
    KFCS 182348Z 04009G15KT 10SM -TSRA OVC085 20/04 A3005 RMK AO2A RAB48 TSB19 PRESRR SLP136 $
  • KFPR: Fort Pierce, St. Lucie County Intl Arpt, FL, United States
    KFPR 182053Z 02008KT 7SM -TSRA FEW039 BKN060 OVC100 24/21 A2995 RMK AO2 PK WND 02030/2029 LTG DSNT N-E RAB29 TSB03 SLP142 P0006 60006 T02390206 55005
  • KFTY: Atlanta (Fulton County), GA, United States
    KFTY 190034Z VRB05KT 5SM -TSRA BR FEW019 BKN043 OVC090 19/18 A2987 RMK AO2 LTG DSNT SW AND NW RAB2355 TSB28 P0008 T01940178
  • KFXE: Fort Lauderdale, FL, United States
    KFXE 182214Z 15008G19KT 9SM -TSRA FEW060 SCT075 BKN095 31/27 A2990 RMK AO2 LTG DSNT N AND NW RAB04 TSB08 P0000 T03110267
    KFXE 190041Z VRB05KT 10SM -TSRA FEW017 BKN031 OVC044 27/24 A2996 RMK AO2 LTG DSNT NE AND E RAB21 TSE2357B29 P0017 T02670244
  • KGAD: Gadsden Municipal, AL, United States
    KGAD 182056Z AUTO 35011KT 10SM -TSRA FEW017 BKN038 20/19 A2984 RMK AO2 WSHFT 2039 LTG DSNT ALQDS TSB05E20B23RAB38 SLP106 P0004 60004 T02000194 55005 $
  • KGEV: Jefferson, Ashe County Airport, NC, United States
    KGEV 190005Z AUTO 34004KT 10SM -TSRA OVC002 16/16 A2997 RMK AO2 LTG DSNT ALQS P0001 T01590156
  • KGSB: Seymour-Johnson AFB, NC, United States
    KGSB 182202Z 01004KT 10SM -TSRA BKN050CB OVC200 27/21 A2979 RMK SLP091 $
  • KGSO: Greensboro, Piedmont Triad Intl Arpt, NC, United States
    KGSO 182100Z 05010G19KT 2 1/2SM -TSRA BR FEW008 BKN013CB OVC041 19/19 A2985 RMK AO2 OCNL LTGICCG OHD TS OHD MOV E P0001 T01890189
    KGSO 182254Z 33009KT 10SM -TSRA FEW008 OVC055CB 18/18 A2990 RMK AO2 RAE10B49 TSB26 SLP118 OCNL LTGIC ALQDS TS ALQDS MOV NE P0000 T01830178
    KGSO 182316Z 09013KT 2SM TSRA BR SCT008CB OVC055 18/17 A2987 RMK AO2 PRESFR OCNL LTGIC ALQDS TS ALQDS MOV NE P0006 T01830172
    KGSO 182325Z 08012KT 6SM -TSRA BR SCT008CB OVC055 18/17 A2985 RMK AO2 OCNL LTGIC ALQDS TS ALQDS MOV NE P0008 T01780172
  • KINT: Winston Salem, Smith Reynolds Airport, NC, United States
    KINT 182107Z 06009G19KT 10SM -TSRA FEW013 BKN026 OVC032 19/16 A2986 RMK AO2 LTG DSNT ALQDS TSB03 P0001 T01890161 $
    KINT 182125Z 05009G20KT 2SM -TSRA BR BKN031 OVC041 18/17 A2987 RMK AO2 LTG DSNT W-NE TSB03 P0011 T01830167 $
    KINT 182132Z VRB05G15KT 3SM TSRA BR FEW006 BKN034 OVC046 18/17 A2989 RMK AO2 LTG DSNT W-NE TSB03 P0014 T01830167 $
    KINT 182233Z 08010G18KT 3SM -TSRA BR FEW007 BKN028 OVC080 18/17 A2988 RMK AO2 WSHFT 2141 LTG DSNT SE-W RAB2159 TSE2159B05E28B31 P0062 T01830167 $
  • KISW: Wisconsin Rapids, WI, United States
    KISW 182335Z AUTO 32011KT 4SM -TSRA SCT070 BKN090 BKN110 23/17 A2975 RMK AO2 LTG DSNT SW AND W RAB19 TSB29 PRESRR P0003 T02330172
    KISW 190011Z AUTO 17010KT 120V220 1SM -TSRA BR BKN029 BKN049 BKN070 18/17 A2972 RMK AO2 LTG DSNT ALQDS PRESFR P0028 T01780167
    KISW 190013Z AUTO 16007KT 2 1/2SM -TSRA BR BKN031 BKN070 18/17 A2973 RMK AO2 LTG DSNT ALQDS P0028 T01780167
    KISW 190020Z AUTO 14011G17KT 10SM -TSRA SCT031 SCT050 BKN070 18/17 A2973 RMK AO2 LTG DSNT ALQDS P0028 T01780167
  • KJFZ: Tazewell, VA, United States
    KJFZ 182155Z AUTO 00000KT 10SM -TSRA SCT033 BKN090 OVC110 19/18 A2993 RMK AO2 LTG DSNT SW THRU NW P0003 T01870178
  • KJNX: Smithfield, Johnston County Airport, NC, United States
    KJNX 182350Z AUTO 02005KT 10SM -TSRA OVC013 22/20 A2984 RMK AO2 LTG DSNT E THRU W
  • KLNL: Land O' Lakes, WI, United States
    KLNL 182355Z AUTO 19004KT 3SM TSRA SCT019 BKN046 OVC095 19/16 A2972 RMK AO2 LTG DSNT ALQS P0007 60007 T01900162 10292 20190
  • KMCO: Orlando, Orlando Intl Arpt, FL, United States
    KMCO 182053Z 32011G16KT 5SM TSRA SCT045CB BKN060 OVC250 24/22 A2996 RMK AO2 PK WND 28030/2014 LTG DSNT NE-SE SLP142 OCNL LTGICCA OHD W-N TS OHD W-N MOV NE P0002 60002 T02440217 55003 $
  • KMEB: Maxton, Laurinburg-Maxton Airport, NC, United States
    KMEB 182127Z AUTO 25005KT 3SM TSRA SCT023 BKN028 OVC037 24/22 A2984 RMK AO2 LTG DSNT N RAB13 TSB27 P0008 T02440217
  • KMLB: Melbourne, Melbourne Intl Arpt, FL, United States
    KMLB 182125Z 12012G16KT 8SM -TSRA FEW043 BKN060 BKN070 28/24 A2991 RMK AO2 LTG DSNT ALQDS RAB19 TSB19 P0000 T02780244
    KMLB 182149Z 33009KT 2SM TSRA BR FEW021 BKN043 OVC095 24/23 A2996 RMK AO2 LTG DSNT ALQDS RAB19 TSB19 PRESRR P0007
    KMLB 182153Z 36008KT 320V030 3SM -TSRA BR FEW023 BKN038 OVC100 24/23 A2996 RMK AO2 LTG DSNT ALQDS RAB19 TSB19 SLP144 P0007 T02440228
  • KMLF: Milford, Milford Municipal Airport, UT, United States
    KMLF 182230Z AUTO 33015KT 3SM -TSRA FEW033 BKN090 OVC110 16/11 A2993 RMK AO2 PK WND 30034/2215 WSHFT 2204 RAB08 TSB02 P0016 T01610111
    KMLF 182236Z AUTO 33011KT 10SM -TSRA FEW031 BKN090 OVC110 17/12 A2993 RMK AO2 PK WND 30034/2215 WSHFT 2218 LTG DSNT E RAB08 TSB02 P0016 T01670117
  • KNCA: Jacksonville MCAS, NC, United States
    KNCA 182256Z AUTO 32008G20KT 2 1/2SM -TSRA BR SCT019 BKN070 OVC095 22/22 A2981 RMK AO2 RAB20E30B43 TSB34B40 SLP095 P0008 T02220222
  • KNKT: Cherry Point, Marine Corps Air Stn, NC, United States
    KNKT 182343Z 23004KT 7SM -TSRA SCT020 BKN060 OVC110 23/22 A2982 RMK AO2 TSB37 T02280222 PNO $
  • KPMP: Pompano Beach, FL, United States
    KPMP 182233Z 16012G23KT 9SM TSRA SCT035 30/27 A2991 RMK AO2 WSHFT 2219 LTG DSNT NW-NE RAB33 TSB18 P0001 T03000267 $
    KPMP 182253Z 01005KT 8SM -TSRA SCT035 29/28 A2993 RMK AO2 WSHFT 2219 LTG DSNT NW-NE RAB33 TSB18 SLP136 P0013 T02890278 $
  • KQOA: UNKNOWN,
    KQOA 182053Z 27010G15KT 9999 -TSRA FEW023 SCT970 32/21 A2985 RMK A02A SLP057 WND DATA ESTMD
  • KRDU: Raleigh / Durham, NC, United States
    KRDU 190027Z 04007KT 10SM -TSRA BKN009CB 19/17 A2987 RMK AO2 TSB26 OCNL LTGICCG SW TS SW MOV E P0001 T01940172
  • KRHI: Rhinelander, WI, United States
    KRHI 182323Z AUTO 18007G22KT 10SM -TSRA FEW060 BKN090 OVC110 20/14 A2973 RMK AO2 PK WND 21027/2308 LTG DSNT ALQDS RAE2257B16 TSB2254E09B17 P0000 T02000139
  • KRMG: Rome, R. B. Russell Airport, GA, United States
    KRMG 182114Z AUTO 14011G29KT 1 3/4SM TSRA SCT032 BKN040 OVC085 21/17 A2983 RMK AO2 PK WND 14029/2111 LTG DSNT ALQDS RAB09 P0001 T02060172
    KRMG 182139Z AUTO VRB06KT 1SM TSRA BKN015 BKN033 OVC042 21/18 A2983 RMK AO2 PK WND 14029/2111 LTG DSNT ALQDS RAB09 P0107 T02060178
    KRMG 182205Z AUTO 30009KT 1 3/4SM -TSRA BR FEW009 BKN025 OVC031 20/18 A2987 RMK AO2 LTG DSNT NE AND SW TSB03 PRESRR P0000 T02000178
    KRMG 182224Z AUTO 35004KT 1SM TSRA BR BKN025 BKN065 OVC080 19/18 A2984 RMK AO2 LTG DSNT ALQDS TSB03 P0056 T01940178
    KRMG 182229Z AUTO 35006KT 3SM -TSRA BR BKN023 BKN065 OVC090 19/18 A2984 RMK AO2 LTG DSNT ALQDS TSB03 P0058 T01940178
    KRMG 182237Z AUTO 02009KT 5SM -TSRA BR SCT026 BKN090 OVC110 20/18 A2983 RMK AO2 LTG DSNT SE AND S TSB03 P0060 T02000183
  • KRYY: Marietta, GA, United States
    KRYY 182350Z 26012KT 8SM TSRA BKN019 BKN050 OVC085 19/17 A2988 RMK AO2 PK WND 27027/2326 LTG DSNT ALQDS TSB18RAB35 SLP108 P0002 60004 T01890167 10267 20189 53005 $
  • KSOP: Southern Pines, NC, United States
    KSOP 182125Z AUTO 35003KT 10SM -TSRA SCT022 BKN031 OVC070 23/22 A2984 RMK AO2 TSB24 P0001
  • KTCL: Tuscaloosa, Tuscaloosa Municipal Airport, AL, United States
    KTCL 182053Z 33009G21KT 8SM -TSRA SCT045 BKN055 BKN070 23/18 A2983 RMK AO2 LTG DSNT W RAB53 TSB41 SLP098 P0001 60001 T02330183 55006
  • KX26: Valkaria AFS Sebastian, FL, United States
    KX26 182115Z AUTO 05005G17KT 3SM -TSRA BR SCT011 BKN033 OVC070 26/24 A2995 RMK AO2 LTG DSNT ALQDS P0016 T02570238
  • KXMR: Cape Kennedy, FL, United States
    KXMR 182155Z AUTO 18007KT 8SM -TSRA SCT002 BKN011 OVC021 25/23 A2995 RMK AO2 RAE08DZB08E12RAB12E14DZB14E16RAB16E22DZB22E25RAB25 TSB04E19TSB34 CIG 007 RWY31 SLP145 P0039 T02450229 $
  • LIEB: Capo Bellavista, Italy
    LIEB 190004Z 23007KT 5000 -TSRA OVC010CB 19/16 Q1011 RMK OVC QUK / QUL / VIS MAR 5 KM MON INVIS VIS MIN 5000
  • LIED: Decimomannu, Italy
    LIED 182211Z 14007KT 9999 -TSRA FEW020CB SCT030 20/17 Q1011 RMK OVC VIS MIN 6000S WHT
    LIED 182306Z 22007KT 6000 -TSRA SCT020CB BKN030 20/19 Q1012 RMK OVC VIS MIN 6000 WHT
    LIED 182320Z 25004KT 6000 -TSRA SCT020CB BKN030 20/19 Q1012 RMK OVC VIS MIN 6000 WHT
    LIED 182323Z 25004KT 9999 -TSRA SCT020CB BKN030 20/20 Q1012 RMK OVC VIS MIN 9999 WIND THR35 /////KT WIND THR17 28005KT BLU
  • LIEE: Cagliari / Elmas, Italy
    LIEE 182220Z 19008KT 9999 -TSRA FEW010 SCT025CB 20/18 Q1011
  • LOWS: Salzburg-Flughafen, Austria
    LOWS 182320Z AUTO 29019G30KT 250V310 9999 -TSRA //////CB FEW018 BKN030 15/10 Q1013
  • LTAR: Sivas, Turkey
    LTAR 182050Z 15004KT 9999 -TSRA FEW025CB BKN030 11/08 Q1018 RETSRA
    LTAR 182050Z 15004KT 9999 -TSRA FEW025CB BKN030 11/08 Q1018 RETSRA RMK RWY19 17006KT
  • LTCJ: Batman, Turkey
    LTCJ 182050Z 36003KT 290V020 9999 -TSRA FEW025CB BKN035 17/10 Q1012 NOSIG
    LTCJ 182050Z 36003KT 290V020 9999 -TSRA FEW025CB BKN035 17/10 Q1012 NOSIG RMK RWY20 31004KT 260V340 1CB025 5CU035
    LTCJ 182120Z 30014G27KT 280V340 8000 -TSRA SCT025CB SCT035 17/12 Q1014
    LTCJ 182125Z 32016G27KT 290V360 4000 TSRA SCT025CB BKN035 15/13 Q1014
    LTCJ 182133Z 34010G20KT 300V010 9999 -TSRA SCT025CB BKN035 16/13 Q1014 RETSRA
  • LTCV: Sirnak, Turkey
    LTCV 182200Z 20005KT 9999 -TSRA FEW026CB SCT035 17/10 Q1012 RETS
    LTCV 182305Z 30015G26KT 260V340 9999 -TSRA FEW026CB SCT035 19/11 Q1014 RETS
  • LWSK: Skopje-Petrovec, Macedonia
    LWSK 182050Z 14010KT 100V190 9999 TSRA FEW020 SCT030CB OVC040 20/17 Q1014 NOSIG
    LWSK 182050Z 22006KT 150V280 5000 TSRA FEW020 SCT030CB OVC040 19/17 Q1016 NOSIG
    LWSK 182120Z VRB02KT 5000 TSRA FEW020 SCT030CB OVC040 19/17 Q1016 NOSIG
    LWSK 182150Z VRB02KT 6000 TSRA FEW020 SCT030CB OVC040 18/17 Q1015 NOSIG
  • MGES: Esquipulas, Guatemala
    MGES 182300Z 03010KT 8000 TSRA SCT018 SCT025CB OVC080 25/20 QFE 909.5 CB/TS /LTNG NE /ENE /WNW/NW
  • MHPR: Palmerola Airport, Comayagua, Hondorus
    MHPR 182120Z 30008KT 9999 -TSRA SCT048TCU FEW50CB 34/20 Q1011 A2987 NOSIG
  • MMTO: Toluca / Jose Maria, Mexico
    MMTO 182244Z 19015KT 7SM TSRA SCT030CB 23/11 A3028 RMK 8/900 HZY TSRAB38
    MMTO 182343Z 10002KT 6SM BKN030CB 21/07 A3029 RMK SLP055 52008 900 60015 8/900 TSRAE37 OCNL DROPS
  • SBBI: Curitiba, Brazil
    SBBI 182100Z 03005KT 3700 -TSRA BR OVC003 //////CB 16/16 Q1020
    SBBI 182200Z 07009KT 4000 -TSRA OVC003 //////CB 16/15 Q1020
  • SBCT: Curitiba Aeroporto, Brazil
    SBCT 182100Z 06005KT 4000 TSRA BKN004 BKN009 FEW030CB 15/15 Q1020
  • SBPV: Porto Velho Aeroporto, Brazil
    SBPV 182226Z 10005KT 4000 -TSRA FEW010 BKN030 FEW040CB 27/24 Q1011
    SBPV 182230Z 10005KT 4000 TSRA FEW010 BKN030 FEW040CB 27/24 Q1011
    SBPV 182300Z 19005KT 4000 TSRA FEW010 BKN020 FEW041CB 26/25 Q1012
  • SYCJ: Georgetown/Cheddi Jagan Arpt, Guyana
    SYCJ 182100Z 08004KT 9999 -TSRA FEW015CB SCT016 BKN036 BKN090 27/26 Q1011 RETS NOSIG RMK CB SE-NW
    SYCJ 182200Z VRB02KT 9999 -TSRA FEW015CB SCT016 BKN036 BKN090 26/25 Q1012 NOSIG RMK CB ALQDS
  • UTSK: Karshi Khanabad, Uzbekistan
    UTSK 182230Z 32018KT 7000 -TSRA OVC033CB 16/15 Q1016 R16/290050
    UTSK 182300Z 31016KT 5000 -TSRA OVC036CB 13/12 Q1017 R16/290050
  • UTSS: Samarkand, Uzbekistan
    UTSS 182100Z 27012KT 230V310 9999 -TSRA OVC053CB 15/12 Q1014 R27/70D NOSIG RMK FLASHES W N
    UTSS 182100Z 27012KT 230V310 9999 -TSRA OVC053CB 15/12 Q1014 R27/CLRD70 NOSIG RMK FLASHES W N
    UTSS 182130Z 26014KT 230V310 6000 -TSRA OVC048CB 14/13 Q1016 R27/29//55 NOSIG
    UTSS 182200Z 24006KT 200V280 9999 -TSRA BKN055CB 14/12 Q1015 R27/290250 NOSIG
  • VEGT: Gauhati, India
    VEGT 182130Z 21002KT 2500 -TSRA FEW010 SCT016 FEW025CB OVC090 26/26 Q1005 NOSIG
  • VETZ: Tezpur Airport, India
    VETZ 182100Z VRB02KT 5000 -TSRABR SCT020 FEW030CB OVC080 23/23 Q1004 NOSIG
  • VOBL: Bengaluru, India
    VOBL 182100Z VRB02KT 4000 -TSRA BR SCT008 SCT012 FEW025CB BKN080 22/21 Q1010 NOSIG
    VOBL 182130Z VRB01KT 4000 -TSRA BR SCT008 SCT012 FEW025CB BKN080 22/21 Q1010 NOSIG
    VOBL 182200Z VRB02KT 4000 -TSRA BR SCT008 SCT012 FEW025CB BKN080 22/21 Q1010 NOSIG
  • VOCI: Cochin Intl, India
    VOCI 182230Z 29004KT 2500 -TSRA FEW008 SCT012 FEW025CB BKN080 25/24 Q1005 NOSIG
    VOCI 182300Z 33003KT 3000 -TSRA FEW008 SCT012 FEW025CB BKN080 25/24 Q1005 NOSIG
  • VOCL: Calicut, India
    VOCL 182230Z 03002KT 1600 TSRA SCT004 SCT012 FEW025CB OVC080 25/24 Q1005 NOSIG
    VOCL 182300Z VRB01KT 2000 -TSRA SCT004 SCT012 FEW025CB BKN080 25/24 Q1005 NOSIG
    VOCL 182330Z 00000KT 2000 -TSRA SCT004 SCT012 FEW025CB BKN080 25/24 Q1005
    VOCL 190000Z VRB01KT 2000 -TSRA SCT004 SCT012 FEW025CB BKN080 25/24 Q1005
    VOCL 190000Z VRB01KT 2000 -TSRA SCT004 SCT012 FEW025CB BKN080 25/24 Q1005 NOSIG
  • VOHB: Hubli, India
    VOHB 190030Z VRB02KT 5000 -TSRA SCT012 SCT018 FEW025CB BKN080 21/20 Q1009
  • VOKN: Kannur Intl, India
    VOKN 182200Z 15007KT 3000 -TSRA FEW003 SCT012 FEW025CB BKN080 25/24 Q1004
    VOKN 182230Z 15005KT 3000 -TSRA FEW003 SCT012 FEW025CB BKN080 25/24 Q1004
    VOKN 182300Z 15004KT 3000 -TSRA FEW003 SCT012 FEW025CB BKN080 25/24 Q1004
    VOKN 182330Z 03005KT 2000 TSRA FEW002 SCT012 FEW025CB BKN080 25/24 Q1004
    VOKN 182330Z 03005KT 2000 TSRA FEW002 SCT012 FEW025CB BKN080 25/24 Q1005
    VOKN 190000Z 24004KT 1500 TSRA SCT002 SCT012 FEW025CB OVC080 24/24 Q1005
    VOKN 190030Z 22004KT 1500 -TSRA FEW002 SCT012 FEW025CB OVC080 24/24 Q1005
  • VOML: Mangalore / Bajpe, India
    VOML 182230Z 15003KT 5000 -TSRA FEW004 SCT012 FEW025CB 25/24 Q1005 NOSIG
  • VOPB: Port Blair Veer Savarkar Intl Airport, India
    VOPB 190000Z VRB01KT 1000 TSRA SCT010 FEW025CB OVC080 27/25 Q1007
    VOPB 190030Z 28006KT 2700 TSRA SCT010 FEW025CB OVC080 26/25 Q1007
  • VOTV: Thiruvananthapuram, India
    VOTV 182100Z 00000KT 2500 TSRA SCT008 SCT012 FEW025CB OVC080 25/24 Q1006 NOSIG
    VOTV 182100Z 00000KT 2500 TSRA SCT008 SCT012 FEW025 OVC080 25/24 Q1006 NOSIG
  • VTBS: Chon Buri, Thailand
    VTBS 182300Z 23009KT 9000 -TSRA FEW015 FEW020CB SCT030 28/24 Q1005
    VTBS 182330Z 22003KT 9000 -TSRA FEW020CB SCT030 29/26 Q1005
    VTBS 190000Z 23007KT 9000 -TSRA FEW020CB SCT030 29/25 Q1006
    VTBS 190030Z 20010KT 9000 -TSRA FEW020CB SCT100 29/24 Q1006
  • VVCI: Cat Bi, Viet Nam
    VVCI 182200Z 06005KT 360V100 9999 -TSRA SCT008 BKN011 FEW023CB 27/25 Q1001
    VVCI 182230Z 05006KT 350V150 7000 -TSRA SCT008 BKN011 FEW023CB 26/25 Q1002
  • WABB: Biak / Mokmer, Indonesia
    WABB 190030Z 29007KT 120V290 5000 -TSRA FEW016CB SCT017 BKN100 25/25 Q1008 NOSIG RMK CB AT SW
  • WALL: Sepinggan, Indonesia
    WALL 182100Z 22007KT 3500 -TSRA FEW016CB SCT017 27/27 Q1007 RMK CB OVER THE FIELD
    WALL 182130Z 23006KT 5000 -TSRA FEW016CB SCT017 27/27 Q1007 RMK CB OVER THE FIELD
    WALL 190030Z 29005KT 8000 -TSRA FEW018CB BKN020 27/27 Q1008 RMK CB OVER THE FIELD
  • ZBAA: Beijing, China
    ZBAA 182130Z 14003MPS 100V190 7000 -TSRA FEW030CB SCT033 21/17 Q1008 NOSIG
    ZBAA 190012Z 13002MPS 090V260 5000 -TSRA BR FEW033CB SCT040 21/17 Q1010 NOSIG
    ZBAA 190030Z 17002MPS 120V290 5000 -TSRA BR FEW033CB SCT040 21/18 Q1010 NOSIG
  • ZBAD: Beijing/Daxing, China
    ZBAD 190030Z 07004MPS 9999 -TSRA FEW020CB BKN023 20/16 Q1009 NOSIG
  • ZGNN: Nanning, China
    ZGNN 190000Z 02008MPS 1800 R05/1400N TSRA SCT007 SCT026CB BKN040 22/22 Q1005


0 stations reporting blizzard conditions

0 stations reporting near-blizzard conditions


2 stations reporting visibility of zero

  • KMWN: Mount Washington, NH, United States
    KMWN 182047Z 12013KT 0SM -DZ FG VV000 04/04 RMK SHRAE35
    KMWN 182147Z 13010KT 0SM FG VV000 05/05 RMK DZE00 SUN DMLY VSBL
    KMWN 182259Z 12009KT 0SM -DZ FG VV000 04/04 RMK DZB35
  • LIVP: Paganella, Italy
    LIVP 182055Z 20012KT 0000 FG VV/// 03/03 Q1016
    LIVP 182055Z 20012KT 0000 FG VV/// 03/03 Q1016 RMK MON INVIS VAL INVIS VIS MIN 0000
15 stations reporting visibility 1/8 mile or less, but not zero

  • EGDY: Yeovilton, United Kingdom [100meters]
    EGDY 182220Z AUTO 35002KT 0200 FG FEW031/// 12/11 Q1014
    EGDY 182250Z AUTO 21001KT 0100 FG FEW004/// 11/11 Q1014
    EGDY 182320Z AUTO 00000KT 0150 FG SCT004/// SCT130/// 11/10 Q1014
    EGDY 190020Z AUTO 30002KT 0100 FG OVC001/// 11/11 Q1014
  • EGHQ: Newquay, United Kingdom [100meters]
    EGHQ 182050Z AUTO 32006KT 0150 FG VV/// 12/12 Q1015
    EGHQ 182220Z AUTO 32005KT 0150 FG VV/// 13/13 Q1015
    EGHQ 182250Z AUTO 35003KT 0150 FG VV/// 13/13 Q1015
    EGHQ 182320Z AUTO 33004KT 0100 FG VV/// 13/13 Q1015
    EGHQ 190020Z AUTO 35005KT 0100 FG VV/// 13/13 Q1015
  • EGOM: Spadeadam, United Kingdom [150meters]
    EGOM 182320Z AUTO 07006KT 0150 FG OVC001/// 10/10 Q1017
    EGOM 190020Z AUTO 07007KT 0150 FG OVC001/// 10/09 Q1017
  • ENJS: Johan Sverdrup, Norway [50meters]
    ENJS 182050Z 34012KT 0050 FG VV002 10/09 Q1016 W10/S2
  • ENSL: Sleipner A Platform, Norway [150meters]
    ENSL 182050Z AUTO 33013KT 0150 FG VV250 10/09 Q1017 W09/S3
  • ETHB: Bueckeburg, Germany [50meters]
    ETHB 182350Z 15001KT 0050 FG FEW048 SCT130 12/12 Q1009 RED
  • ETIC: Grafenwoehr, Germany [200meters]
    ETIC 182210Z AUTO 00000KT 0200 R32/0150V0300 FG BKN000 09/08 A2986 RMK AO2 SLP117 $
    ETIC 182255Z AUTO 00000KT 0200 R32/0150V0350 FG VV000 09/09 A2986 RMK AO2 SLP116 T00930087 $
  • FACT: Cape Town D. F. Malan, South Africa [100meters]
    FACT 190000Z 01002KT 0100 R19/0400 FG NSC 10/10 Q1019 NOSIG
  • K9A5: Lafayette, GA, United States [<1/4mile]
    K9A5 182055Z AUTO 00000KT M1/4SM FG OVC016 19/19 A2986 RMK AO2 T01850185
    K9A5 182115Z AUTO 00000KT M1/4SM FG BKN017 OVC039 18/18 A2985 RMK AO2 T01820182
    K9A5 182135Z AUTO 21003KT M1/4SM FG BKN026 OVC044 17/17 A2986 RMK AO2 T01730173
    K9A5 182155Z AUTO 00000KT M1/4SM FG BKN021 BKN037 OVC048 17/17 A2986 RMK AO2 T01660166
    K9A5 182215Z AUTO 00000KT M1/4SM FG BKN022 BKN033 OVC042 17/17 A2987 RMK AO2 T01650165
    K9A5 182235Z AUTO 00000KT M1/4SM FG OVC043 17/17 A2985 RMK AO2 T01690169
    K9A5 182255Z AUTO 00000KT M1/4SM FG BKN028 BKN044 OVC055 17/17 A2984 RMK AO2 T01710171
    K9A5 182315Z AUTO 28004KT M1/4SM FG BKN029 BKN050 BKN065 17/17 A2985 RMK AO2 T01710171
  • KGMJ: Grove, Grove Municipal Airport, OK, United States [<1/4mile]
    KGMJ 182055Z AUTO VRB03KT M1/4SM -RA HZ VV000 30/18 A2988 RMK AO2 TSNO
  • KHSP: Hot Springs / Ingalls, VA, United States [<1/4mile]
    KHSP 182215Z AUTO 07007KT M1/4SM -DZ OVC002 16/15 A2998 RMK AO2 LTG DSNT NW T01620151
    KHSP 182235Z AUTO 07006KT M1/4SM -RA OVC002 16/15 A2998 RMK AO2 LTG DSNT SW T01580147
    KHSP 182255Z AUTO 08005KT M1/4SM -RA OVC002 16/15 A2998 RMK AO2 LTG DSNT SW T01580148
    KHSP 182315Z AUTO 08004KT M1/4SM -RA OVC002 16/15 A2998 RMK AO2 T01550145
    KHSP 182335Z AUTO 07006KT M1/4SM -RA OVC002 16/15 A2999 RMK AO2 T01550145
    KHSP 182355Z AUTO 08005KT M1/4SM -RA OVC002 15/14 A3000 RMK AO2 T01530143 10192 20153
    KHSP 190015Z AUTO 10005KT M1/4SM RA OVC002 15/14 A3000 RMK AO2 T01510141
    KHSP 190035Z AUTO 10005KT M1/4SM -RA OVC002 15/14 A3001 RMK AO2 T01500140
  • KJAU: Jacksboro, TN, United States [<1/4mile]
    KJAU 182155Z AUTO VRB05G32KT M1/4SM HZ OVC003 18/16 A2991 RMK A01 P0002
  • KMWN: Mount Washington, NH, United States [1/16mile]
    KMWN 182347Z 12014KT 1/16SM -DZ FG VV000 04/04 RMK 60004 10047 20038
  • KVBW: Bridgewater, VA, United States [<1/4mile]
    KVBW 182055Z AUTO 00000KT M1/4SM OVC015 A2993 RMK AO1
    KVBW 182115Z AUTO 14003KT M1/4SM OVC015 A2993 RMK AO1
  • SCVD: Valdivia, Chile [100meters]
    SCVD 182100Z VRB02KT 0200 FG VV001 05/05 Q1024
    SCVD 182200Z VRB02KT 0100 FG VV001 05/05 Q1024
    SCVD 182300Z 00000KT 0200 FG VV001 05/05 Q1024
0 stations reporting visibility 75 miles or greater

3 stations reporting visibility 50-74 miles

  • CYQL: Lethbridge, Alta., Canada [60miles]
    CYQL 182100Z 26006G18KT 230V310 60SM BKN065 BKN270 15/M02 A2978 RMK CU5CI2 SLP099 DENSITY ALT 3900FT
    CYQL 182200Z 26018G23KT 60SM SCT065 BKN270 15/M01 A2977 RMK CU4CI3 SLP095 DENSITY ALT 4000FT
    CYQL 182300Z 30006G15KT 60SM BKN065 BKN270 13/M02 A2977 RMK CU5CI2 VIRGA SLP099 DENSITY ALT 3800FT
    CYQL 190000Z 24019KT 60SM SCT060TCU BKN095 BKN270 12/01 A2979 RMK TCU3AC2CI2 VIRGA SLP108 DENSITY ALT 3600FT
  • CYXJ: Fort St John, B. C., Canada [60miles]
    CYXJ 182200Z 32005KT 60SM -SHRA BKN045CB 10/03 A2982 RMK CB7 VIRGA SLP120
    CYXJ 182224Z 30008KT 60SM VCSH BKN052CB BKN220 12/02 A2982 RMK CB5CI1 CI TR SLP118 DENSITY ALT 2600FT
    CYXJ 182300Z 32006KT 260V010 60SM VCSH SCT055CB BKN130 BKN220 13/01 A2981 RMK CB4AC1CI1 SLP118 DENSITY ALT 2800FT
    CYXJ 182355Z 26015KT 60SM -SHRA BKN065CB BKN130 BKN220 12/02 A2981 RMK CB6AC1CI1 CI TR SLP119 DENSITY ALT 2700FT
    CYXJ 190000Z 27014KT 60SM -SHRA BKN065CB BKN130 BKN220 12/02 A2982 RMK CB6AC1CI1 CI TR SLP121 DENSITY ALT 2600FT
    CYXJ 190023Z 29010KT 240V310 60SM -SHRAGS BKN055CB BKN130 BKN230 11/04 A2982 RMK CB6AC1CI1 CI TR HAIL DIAM 02 MM SLP124 DENSITY ALT 2500FT
    CYXJ 190029Z 35009G15KT 250V360 60SM -SHRA BKN058CB BKN130 BKN230 09/02 A2983 RMK CB6AC1CI1 CI TR SLP128
  • KEDW: Edwards AFB, CA, United States [70miles]
    KEDW 182055Z 22019G25KT 70SM FEW050 FEW250 31/M01 A2984 RMK AO2A PK WND 22029/16 SLP084 T03131015 57014
    KEDW 182155Z 22021G26KT 70SM FEW050 FEW230 31/M01 A2984 RMK AO2A PK WND 23031/46 SLP084 T03051011
    KEDW 182230Z 23023G30KT 70SM FEW050 FEW230 30/M02 A2983 RMK AO2A
    KEDW 182255Z 23018G29KT 70SM FEW050 FEW230 30/M02 A2984 RMK AO2A PK WND 22032/47 SLP084 T02961018
    KEDW 182355Z 23025G31KT 50SM FEW050 FEW230 27/00 A2984 RMK AO2A PK WND 23036/53 SLP086 T02730001 10318 20272 53001


0 stations reporting aurora

0 stations reporting solar/lunar eclipse


0 stations reporting inside a hurricane eye

0 stations reporting aircraft mishap

12 stations reporting bird hazard on the runway

  • SPCL: Pucallpa, Peru
    SPCL 182100Z 19006KT 9999 SCT020 32/22 Q1011 RMK BIRD HAZARD RWY 02/20 PP000
    SPCL 182200Z 15005KT 9999 FEW020 31/22 Q1011 RMK TX33.4 BIRD HAZARD RWY 02/20 PP000
  • SPHI: Chiclayo, Peru
    SPHI 182100Z 17021KT CAVOK 22/17 Q1010 RMK BIRD HAZARD RWY 19/01 PP000
    SPHI 182200Z 18019KT 9999 FEW010 21/17 Q1011 RMK TX24.9 BIRD HAZARD RWY 19/01 PP000
    SPHI 182300Z 18021KT 9999 BKN007 20/17 Q1011 RMK BIRD HAZARD RWY 19/01 PP000
    SPHI 190000Z 18018KT 9000 VCFG BKN005 19/17 Q1012 RMK BIRD HAZARD RWY 19/01 PP000
  • SPHO: Ayacucho, Peru
    SPHO 182100Z 19003KT 110V260 9999 FEW040 23/06 Q1026 RMK BIRD HAZARD RWY 02/20 PP000
    SPHO 182200Z 14003KT 110V180 9999 FEW040 23/02 Q1026 RMK TX23.5 BIRD HAZARD RWY 02/20 PP000
    SPHO 182300Z 26005KT CAVOK 20/07 Q1026 RMK BIRD HAZARD RWY 02/20 PP000
  • SPJC: Lima/J Chavez, Peru
    SPJC 182100Z 19009KT 150V220 6000 OVC005 18/15 Q1012 NOSIG RMK BIRD HAZARD RWY 16 PP000
  • SPJE: Shumba, Peru
    SPJE 182100Z /////KT 9999 FEW030 BKN100 27/22 Q1013 RMK BIRD HAZARD RWY 16/34 TX31.0 PP000
  • SPME: Tumbes, Peru
    SPME 182100Z 34008KT 9999 SCT017 BKN040 27/24 Q1009 RMK BIRD HAZARD RWY 32/14 PP000
    SPME 182200Z 36004KT 9999 SCT017 BKN040 27/24 Q1009 RMK BIRD HAZARD RWY 32/14 PP000
    SPME 182300Z 28006KT 9999 BKN015 26/23 Q1009 RMK BIRD HAZARD RWY 32/14 TX 31.3 PP000
    SPME 190000Z 28004KT 9999 BKN015 26/23 Q1010 RMK BIRD HAZARD RWY 32/14 PP000
  • SPMS: Yurimaguas, Peru
    SPMS 182100Z 08002KT 9999 FEW030 31/24 Q1009 RMK BIRD HAZARD RWY 09/27 PP000
  • SPSO: Pisco, Peru
    SPSO 182100Z 23016KT CAVOK 21/16 Q1011 RMK BIRD HAZARD RWY 22/04 PP000
    SPSO 182200Z 22016KT CAVOK 21/16 Q1011 RMK TX23.3 BIRD HAZARD RWY 22/04 PP000
    SPSO 182300Z 22017KT CAVOK 20/16 Q1011 RMK BIRD HAZARD RWY 22/04 PP000
  • SPTU: Puerto Maldonado, Peru
    SPTU 182100Z 13003KT 050V200 9999 FEW015 SCT020 31/23 Q1011 RMK BIRD HAZARD RWY 01/19 PP000
    SPTU 182200Z 00000KT 9999 FEW030 29/23 Q1011 RMK TX31.9 BIRD HAZARD RWY 01/19 PP000
    SPTU 182300Z 00000KT 9999 FEW030 26/24 Q1011 RMK BIRD HAZARD RWY 01/19 PP000
    SPTU 190000Z 00000KT 9999 SCT025 26/23 Q1011 RMK BIRD HAZARD RWY 01/19 PP000
  • SPUR: Piura, Peru
    SPUR 182100Z 21015KT CAVOK 28/18 Q1009 RMK BIRD HAZARD RWY 19/01 PP000
    SPUR 182200Z 20017KT CAVOK 27/18 Q1010 RMK BIRD HAZARD RWY 19/01 TX30.4 PP000
    SPUR 182300Z 19016KT CAVOK 25/18 Q1011 RMK BIRD HAZARD RWY 19/01 PP000
    SPUR 190000Z 19015KT CAVOK 23/17 Q1012 RMK BIRD HAZARD RWY 19/01 PP000
  • SPYL: Talara, Peru
    SPYL 182100Z /////KT CAVOK 24/18 Q1010 RMK TX27.8 BIRD HAZARD RWY 17/35 PP000
  • SPZO: Cuzco, Peru
    SPZO 182100Z 28009KT 9999 SCT050 19/01 Q1030 NOSIG RMK BIRD HAZARD RWY 10/28 PP000
    SPZO 182130Z 28010KT 9999 SCT050 21/01 Q1030 NOSIG RMK BIRD HAZARD RWY 10/28
    SPZO 182200Z 27009KT 240V300 9999 SCT050 20/01 Q1030 NOSIG RMK TX22.5 BIRD HAZARD RWY 10/28 PP000
    SPZO 182230Z 31009KT 270V340 9999 SCT050 18/01 Q1031 NOSIG RMK BIRD HAZARD RWY 10/28
    SPZO 182300Z 30009KT 9999 FEW050 16/02 Q1031 NOSIG RMK BIRD HAZARD RWY 10/28 PP000
    SPZO 182330Z 28007KT 9999 FEW050 15/03 Q1031 NOSIG RMK BIRD HAZARD RWY 10/28
    SPZO 190000Z VRB02KT 9999 FEW050 15/02 Q1032 NOSIG RMK BIRD HAZARD RWY 10/28 PP000
    SPZO 190030Z 27004KT 9999 FEW050 12/03 Q1032 NOSIG RMK BIRD HAZARD RWY 10/28
0 stations reporting volcanic ash

1 station reporting ice crystals/diamond dust

  • NZSP: Amundsen-Scott Stn, Antarctica
    NZSP 182350Z 11007KT 9999 IC SKC M67/ A2799 RMK CLN AIR 10007KT ALL WNDS GRID
0 stations reporting blowing spray

5 stations reporting dust or duststorm

  • MMMX: Mexico City / Licenci, Mexico
    MMMX 182250Z 02015KT 6SM VCRA SCT020CB BKN080 BKN220 30/07 A3015 NOSIG RMK 8/363 HZY PCPN W SW BLDU
    MMMX 182330Z 06023KT 6SM VCRA BKN020CB BKN080 OVC220 28/10 A3016 NOSIG RMK 8/963 HZY BINOVC DSNT LTGICCG 1ST 2ND QUAD BLDU
    MMMX 182340Z 05022KT 6SM VCRA BKN020CB BKN080 OVC220 28/10 A3018 NOSIG RMK SLP019 57003 921 8/963 HZY BINOVC DSNT LTGICCG 1ST 2ND QUAD BLDU
  • MMPB: Puebla, Pue., Mexico
    MMPB 182220Z 04023G33KT 3SM HZ DU OVC015CB 21/09 A3023 RMK 8/9// PCPN E
  • OENG: Najran, Saudi Arabia
    OENG 182100Z 06008KT 5000 DU NSC 30/05 Q1017 NOSIG
    OENG 182200Z 03004KT 5000 DU NSC 29/05 Q1016 NOSIG
    OENG 190000Z 03006KT 4000 DU NSC 27/03 Q1016 NOSIG
  • OIBB: Bushehr Civ / Afb, Iran
    OIBB 182100Z 00000KT 5000 DU NSC 24/18 Q1005 A2970
  • UTST: Termez, Uzbekistan
    UTST 182300Z 23020KT 1300 R25/P2000 DS SCT066CB 20/11 Q1011 R25/CLRD70
    UTST 182330Z 24022G32KT 1900 R25/P2000U DS SCT066CB 20/11 Q1011 R25/CLRD70
    UTST 190000Z 25026KT 1700 R25/1700N DS SCT066CB 20/12 Q1012 R25/CLRD70
    UTST 190030Z 24026KT 1100 DS SCT066CB 18/13 Q1013 R25/CLRD70
3 stations reporting sand or sandstorm

  • DAAJ: Djanet, Algeria
    DAAJ 182100Z 34004KT 4000 SA NSC 33/01 Q1017
    DAAJ 182200Z 32005KT 4000 SA NSC 33/01 Q1017
    DAAJ 182300Z 32004KT 4000 SA NSC 33/02 Q1017
    DAAJ 190000Z 35004KT 4000 SA NSC 32/03 Q1016
  • OIYY: Yazd, Iran
    OIYY 182100Z 28014KT 5000 SA NSC 23/M00 Q1012
    OIYY 182200Z 30012KT 5000 SA NSC 22/M01 Q1013
    OIYY 190000Z 30010KT 4000 SA NSC 21/M01 Q1013
  • OJAQ: Aqaba Airport, Jordan
    OJAQ 190000Z 35003KT 5000 SA NSC 28/03 Q1013 NOSIG
1 station reporting well-developed dust/sand whirls

  • KIWA: Mesa, Williams Gateway Airport, AZ, United States
    KIWA 182047Z 28007G15KT 10SM SCT120 36/M01 A2984 VCPO
    KIWA 182153Z 24007G15KT 10SM SCT120 37/M01 A2982 VCPO
    KIWA 182249Z 31009G18KT 10SM CLR 37/00 A2979 VCPO
    KIWA 182352Z 24016G26KT 10SM VCPO CLR 37/00 A2978
16 stations reporting smoke

  • KQD3: UNKNOWN,
    KQD3 182155Z COR 09004KT 8000 FU FEW016 31/27 A2973 RMK AO2 SLP052 WND DATA ESTMD T03080272 COR 2223
  • MGCB: Coban, Guatemala
    MGCB 182200Z 24004KT 5000 FU BKN018 24/21 867.8
    MGCB 190000Z 00000KT 5000 FU OVC018 23/21 QFE868.8
  • MGMM: Melchor de Mencos Airport, Guatemala
    MGMM 182100Z 30004KT 5000 FU BKN080 42/23 Q1006 A2971
    MGMM 182100Z 30004KT 5000 FU BKN090 42/23 Q1006 A2971
    MGMM 182200Z 30004KT 8000 SCT200 42/22 Q1005 A2968 FU
  • MGRT: Retalhuleu, Guatemala
    MGRT 182200Z 23008KT 9999 SCT018 SCT025CB 31/24 Q1011 A2985 FEW080 CB N/NE/E/SE/NW VOLC STA MARIA Y SANTGO EN ACTV. MGQZ 182200Z 14006KT 9999 TS SCT018 FEW025CB BKN070 22/13 QFE 772.9 CB/TS/PCPN/E/ESE MGCB 182200Z 24004KT 5000 FU BKN018 24/21 867.8 MGZA 182200Z 18004KT 9999 FEW030 FEW035CB 44/17 QFE979.0 FEW100 FEW200 CB ENE/E/ESE CB DIST SE
    MGRT 190000Z 14012KT 9999 TS BKN014 FEW025CB BKN090 32/25 Q1011 A2985 CB/TS/PCPN ENE/E/ESE VOLC STA MARIA Y SANTGO EN ACTV MGQZ 190000Z 18004KT 9999 TS SCT020 FEW025CB BKN080 21/15 QFE773.1 CB/TS/PCPN/S/SW MGCB 190000Z 00000KT 5000 FU OVC018 23/21 QFE868.8
  • MHLC: La Ceiba Airport, Honduras
    MHLC 182100Z 06009KT 5000 FU FEW028 35/25 Q1007 A2974 NOSIG
  • MHLM: La Mesa San Pedro Sula, Honduras
    MHLM 182300Z 04016KT 4000 FU FEW028 34/24 Q1005 A2968 NOSIG
    MHLM 190000Z 02011KT 4000 FU FEW028 33/24 Q1006 A2971 NOSIG
  • MHTE: Tela, Honduras
    MHTE 182200Z 04008KT 6000 2000SW FU FEW026TCU 34/25 Q1005 A2968
    MHTE 182300Z VRB03KT 7000 2000SW FU FEW026TCU 34/26 Q1005 A2968
  • MMCB: Cuernavaca, Mor., Mexico
    MMCB 182144Z 11006KT 7SM FEW250 36/10 A2994 RMK 8/002 ISOL CU SC FU HZ
    MMCB 182243Z 00000KT 7SM SKC 36/10 A2991 RMK ISOL CU SC FU HZ
  • MMPQ: Palenque, Mexico
    MMPQ 182141Z 27012KT 3SM FU BKN030 OVC060 35/27 A2961 RMK 8/62/ HZY
    MMPQ 182242Z 27008KT 3SM FU BKN030 OVC060 34/27 A2961 RMK 8/62/ HZY
    MMPQ 182341Z 17006KT 3SM FU BKN030 OVC060 33/27 A2962 RMK 8/62/ HZY
  • MMVA: Villahermosa, Mexico
    MMVA 182045Z 00000KT 2SM HZ FU SCT070 BKN210 34/25 A2975 RMK SLP073 57014 941 8/018
    MMVA 182141Z 01007KT 3SM HZ FU BKN070 BKN210 33/24 A2975 RMK 8/018
    MMVA 182240Z 32006KT 3SM HZ FU SCT070 BKN210 34/25 A2974 RMK 8/018
    MMVA 182347Z 31005KT 3SM HZ FU SCT060 BKN200 32/26 A2975 RMK SLP073 54000 942 8/018
  • MNRS: Rivas, Nicaragua
    MNRS 182200Z 00000KT 9999 FEW015 33/26 Q1007 FU
    MNRS 182300Z 00000KT 9000 FEW015 32/25 Q1007 FU
  • MZBZ: Goldston Intl. Airport, Belize
    MZBZ 182100Z 10010G20KT 9000 FEW023 34/27 A2975 Q1007 NOSIG RMK HZ FU
    MZBZ 182200Z 10010KT 9000 NSC 33/26 A2974 Q1007 NOSIG RMK HZ FU
    MZBZ 182300Z 11009KT 9000 FEW022 32/27 A2974 Q1007 NOSIG RMK HZ FU
    MZBZ 190000Z 11007KT 9000 NSC 31/26 A2976 Q1007 NOSIG RMK HZ FU
  • OPFA: Faisalabad, Pakistan
    OPFA 182055Z 00000KT 4000 FU NSC 31/20 Q1001 NOSIG
    OPFA 182155Z 00000KT 4000 FU NSC 30/19 Q1000 NOSIG
    OPFA 182200Z 00000KT 4000 FU NSC 31/20 Q1001 NOSIG
    OPFA 182255Z 00000KT 4000 FU NSC 20/20 Q1000 NOSIG
    OPFA 190000Z 00000KT 4000 FU NSC 20/20 Q1000 NOSIG
  • OPMT: Multan, Pakistan
    OPMT 182355Z 00000KT 4000 FU FEW120 29/18 Q0999 NOSIG
  • VAAH: Ahmadabad, India
    VAAH 182100Z 27009KT 4000 FU NSC 34/11 Q1001 NOSIG
    VAAH 182130Z 26010KT 4000 FU FEW080 34/11 Q1001 NOSIG
    VAAH 182200Z 28006KT 4000 FU FEW080 33/10 Q1001 NOSIG
    VAAH 182230Z 28005KT 4000 FU SCT080 33/11 Q1001 NOSIG
    VAAH 182300Z 28006KT 4000 FU FEW020 SCT080 33/11 Q1001 NOSIG
    VAAH 182330Z 28005KT 4000 FU FEW020 SCT080 33/11 Q1001 NOSIG
    VAAH 190000Z 28006KT 4000 FU FEW020 SCT080 32/12 Q1002 NOSIG
    VAAH 190030Z 29005KT 4000 FU SCT080 32/12 Q1002 NOSIG
  • VABO: Vadodara, India
    VABO 182300Z 18005KT 3000 FU NSC 32/21 Q1002 NOSIG
    VABO 190000Z 23006KT 3000 FU SCT080 32/22 Q1002 NOSIG
    VABO 190030Z 22009KT 3000 FU SCT080 32/22 Q1003 NOSIG


Stations falling into 5 or more extreme categories

Stations falling into 4 extreme categories

  • KPMP: Pompano Beach, FL, United States
        Dewpoint, Precipitation Type/Intensity, Hourly Precip Total, Thunderstorm
Stations falling into 3 extreme categories

  • CYXJ: Fort St John, B. C., Canada
        Hail, Thunderstorm, Visibility
  • KAVL: Asheville, Asheville Regional Airport, NC, United States
        Wind, Hourly Precip Total, Thunderstorm
  • KBLF: Bluefield, Mercer County Airport, WV, United States
        Precipitation Type/Intensity, Hourly Precip Total, Thunderstorm
  • KFXE: Fort Lauderdale, FL, United States
        Dewpoint, Precipitation Type/Intensity, Thunderstorm
  • KGSO: Greensboro, Piedmont Triad Intl Arpt, NC, United States
        Precipitation Type/Intensity, Hourly Precip Total, Thunderstorm
  • KINT: Winston Salem, Smith Reynolds Airport, NC, United States
        Precipitation Type/Intensity, Hourly Precip Total, Thunderstorm
Stations falling into 2 extreme categories

  • CXEA: Ear Falls (aut), ON, Canada
        Pressure Change, Hourly Precip Total
  • CYAH: La Grande Iv, Que., Canada
        Precipitation Type/Intensity, Thunderstorm
  • CYCQ: Chetwynd Airport, Canada
        Hail, Thunderstorm
  • KANB: Anniston, Anniston Metropolitan Airport, AL, United States
        Wind, Thunderstorm
  • KASN: Talladega, AL, United States
        Hourly Precip Total, Thunderstorm
  • KBCT: Boca Raton, Boca Raton Airport, FL, United States
        Dewpoint, Thunderstorm
  • KBJC: Broomfield / Jeffco, CO, United States
        Thunderstorm, Visibility
  • KBUY: Burlington, Burlington Alamance Regional Airport, NC, United States
        Hourly Precip Total, Thunderstorm
  • KCNI: Canton, GA, United States
        Hourly Precip Total, Thunderstorm
  • KCYD: Miss Canyan 807, LA, United States
        Hourly Precip Total, Thunderstorm
  • KGAD: Gadsden Municipal, AL, United States
        Precipitation Type/Intensity, Thunderstorm
  • KGEV: Jefferson, Ashe County Airport, NC, United States
        Precipitation Type/Intensity, Thunderstorm
  • KISW: Wisconsin Rapids, WI, United States
        Hourly Precip Total, Thunderstorm
  • KJFZ: Tazewell, VA, United States
        Precipitation Type/Intensity, Thunderstorm
  • KMKJ: Marion / Wytheville, VA, United States
        Precipitation Type/Intensity, Hourly Precip Total
  • KNBT: Piney Island, Bt-11 Bombing Range, NC, United States
        Precipitation Type/Intensity, Hourly Precip Total
  • KPUJ: Dallas, GA, United States
        Precipitation Type/Intensity, Hourly Precip Total
  • KQD3: UNKNOWN,
        Dewpoint, Smoke
  • KRHI: Rhinelander, WI, United States
        Pressure Change, Thunderstorm
  • KRMG: Rome, R. B. Russell Airport, GA, United States
        Hourly Precip Total, Thunderstorm
  • MGMM: Melchor de Mencos Airport, Guatemala
        Temperature, Smoke
  • MGRT: Retalhuleu, Guatemala
        Temperature, Smoke
  • MGZA: Zacapa, Guatemala
        Temperature, Smoke
  • MHLC: La Ceiba Airport, Honduras
        Dewpoint, Smoke
  • MHTE: Tela, Honduras
        Dewpoint, Smoke
  • MMPB: Puebla, Pue., Mexico
        Precipitation Type/Intensity, Dust/Duststorm
  • MMPQ: Palenque, Mexico
        Dewpoint, Smoke
  • MMVA: Villahermosa, Mexico
        Dewpoint, Smoke
  • MNRS: Rivas, Nicaragua
        Dewpoint, Smoke
  • MZBZ: Goldston Intl. Airport, Belize
        Dewpoint, Smoke
  • NZSP: Amundsen-Scott Stn, Antarctica
        Temperature, Ice Crystals/Diamond Dust
  • SYCJ: Georgetown/Cheddi Jagan Arpt, Guyana
        Dewpoint, Thunderstorm
  • VEGT: Gauhati, India
        Dewpoint, Thunderstorm
  • VOPB: Port Blair Veer Savarkar Intl Airport, India
        Dewpoint, Thunderstorm
  • VTBS: Chon Buri, Thailand
        Dewpoint, Thunderstorm
  • VVCI: Cat Bi, Viet Nam
        Precipitation Type/Intensity, Thunderstorm
  • WABB: Biak / Mokmer, Indonesia
        Dewpoint, Thunderstorm
  • WALL: Sepinggan, Indonesia
        Dewpoint, Thunderstorm


86 unidentified stations (out of a total of 165 documented unknown stations)

  • ENUN (OLD)
  • EQYE (OLD)
  • EQYF (OLD)
  • EQYT (OLD)
  • EQYV (OLD)
  • FCOD (NEW)
  • HESX (NEW)
  • K0D8 (NEW)
  • K0W3 (NEW)
  • K10U (NEW)
  • K1D8 (NEW)
  • K1K8 (NEW)
  • K2M8 (NEW)
  • K2R2 (NEW)
  • K3K7 (NEW)
  • K3W7 (NEW)
  • K42A (NEW)
  • K49B (NEW)
  • K4B8 (NEW)
  • K60R (NEW)
  • K8V7 (NEW)
  • K9Y1 (NEW)
  • KACZ (NEW)
  • KANR (NEW)
  • KBFA (NEW)
  • KC08 (NEW)
  • KCPP (NEW)
  • KCSB (NEW)
  • KD09 (NEW)
  • KDRP (NEW)
  • KE57 (NEW)
  • KE77 (NEW)
  • KETO (NEW)
  • KFOM (NEW)
  • KGDK (NEW)
  • KHVC (NEW)
  • KI40 (NEW)
  • KI95 (NEW)
  • KK83 (NEW)
  • KMCZ (NEW)
  • KMKQ (NEW)
  • KN79 (NEW)
  • KOYE (NEW)
  • KQA8 (OLD)
  • KQAL (OLD)
  • KQB3 (OLD)
  • KQD3 (OLD)
  • KQEK (OLD)
  • KQEO (OLD)
  • KQFL (OLD)
  • KQGE (OLD)
  • KQHB (OLD)
  • KQHC (OLD)
  • KQOA (OLD)
  • KQOH (NEW)
  • KQRD (OLD)
  • KQX2 (OLD)
  • KQXH (OLD)
  • KS12 (NEW)
  • KSBX (NEW)
  • KTQV (OLD)
  • KU64 (NEW)
  • KVGN (NEW)
  • LETU (OLD)
  • LIRY (NEW)
  • LRBV (NEW)
  • LTFO (OLD)
  • MGMT (OLD)
  • MGTU (OLD)
  • NZQN (NEW)
  • OEMN (NEW)
  • OKKK (NEW)
  • PACX (NEW)
  • PANU (NEW)
  • PAPE (NEW)
  • PFKO (NEW)
  • PFTO (NEW)
  • PFZK (NEW)
  • UBBZ (NEW)
  • VAHS (NEW)
  • VDSA (NEW)
  • VISP (NEW)
  • VOGA (NEW)
  • VTSY (NEW)
  • WILL (NEW)
  • YBSU (NEW)